<?xml version="1.0" encoding="UTF-8" standalone="no" ?>
<gpx version="1.0" xmlns="http://www.topografix.com/GPX/1/0" creator="US Topo Maps" xmlns:xsi="http://www.w3.org/2001/XMLSchema-instance" xsi:schemaLocation="http://www.topografix.com/GPX/1/0 http://www.topografix.com/GPX/1/0/gpx.xsd">
<name>Basin Trail #247 Drivearound.PatJayNancy.2021-03-23 16:26:59</name>
<trk>
<name>Basin Trail #247 Drivearound.PatJayNancy.2021-03-23 16:26:59</name>
<trkseg>
<trkpt lat="31.87241955" lon="-109.23462677">
<ele>1749</ele>
<time>2021-03-23T23:07:36Z</time>
<speed>0.2</speed>
</trkpt>
<trkpt lat="31.8724721" lon="-109.23460097">
<ele>1744.3</ele>
<time>2021-03-23T23:07:39Z</time>
<speed>0.6</speed>
</trkpt>
<trkpt lat="31.87250825" lon="-109.23457754">
<ele>1745.5</ele>
<time>2021-03-23T23:07:41Z</time>
<speed>0.6</speed>
</trkpt>
<trkpt lat="31.87254486" lon="-109.23458013">
<ele>1747.3</ele>
<time>2021-03-23T23:07:53Z</time>
<speed>0</speed>
</trkpt>
<trkpt lat="31.87257631" lon="-109.23455537">
<ele>1748.3</ele>
<time>2021-03-23T23:08:34Z</time>
<speed>1.6</speed>
</trkpt>
<trkpt lat="31.87261271" lon="-109.23454607">
<ele>1747.9</ele>
<time>2021-03-23T23:08:36Z</time>
<speed>2</speed>
</trkpt>
<trkpt lat="31.87265503" lon="-109.23451312">
<ele>1748</ele>
<time>2021-03-23T23:08:38Z</time>
<speed>2.9</speed>
</trkpt>
<trkpt lat="31.87270494" lon="-109.23445698">
<ele>1748.5</ele>
<time>2021-03-23T23:08:40Z</time>
<speed>3.9</speed>
</trkpt>
<trkpt lat="31.87273677" lon="-109.2344297">
<ele>1748.8</ele>
<time>2021-03-23T23:08:41Z</time>
<speed>4.2</speed>
</trkpt>
<trkpt lat="31.87280034" lon="-109.2343888">
<ele>1748.9</ele>
<time>2021-03-23T23:08:43Z</time>
<speed>4.1</speed>
</trkpt>
<trkpt lat="31.8728394" lon="-109.23436739">
<ele>1748.2</ele>
<time>2021-03-23T23:08:44Z</time>
<speed>4.8</speed>
</trkpt>
<trkpt lat="31.87287962" lon="-109.23434958">
<ele>1748.8</ele>
<time>2021-03-23T23:08:45Z</time>
<speed>4.4</speed>
</trkpt>
<trkpt lat="31.87292082" lon="-109.23433565">
<ele>1749.4</ele>
<time>2021-03-23T23:08:46Z</time>
<speed>4.4</speed>
</trkpt>
<trkpt lat="31.87295768" lon="-109.23432902">
<ele>1749.9</ele>
<time>2021-03-23T23:08:47Z</time>
<speed>4.1</speed>
</trkpt>
<trkpt lat="31.87302404" lon="-109.23433336">
<ele>1749.9</ele>
<time>2021-03-23T23:08:49Z</time>
<speed>3.3</speed>
</trkpt>
<trkpt lat="31.87307519" lon="-109.23432929">
<ele>1749.9</ele>
<time>2021-03-23T23:08:51Z</time>
<speed>2.7</speed>
</trkpt>
<trkpt lat="31.87312043" lon="-109.23432266">
<ele>1749.3</ele>
<time>2021-03-23T23:08:53Z</time>
<speed>2.7</speed>
</trkpt>
<trkpt lat="31.87316942" lon="-109.23431622">
<ele>1749.2</ele>
<time>2021-03-23T23:08:55Z</time>
<speed>2.9</speed>
</trkpt>
<trkpt lat="31.87322111" lon="-109.2343133">
<ele>1749.2</ele>
<time>2021-03-23T23:08:57Z</time>
<speed>2.8</speed>
</trkpt>
<trkpt lat="31.87326942" lon="-109.2343167">
<ele>1749.2</ele>
<time>2021-03-23T23:08:59Z</time>
<speed>2.7</speed>
</trkpt>
<trkpt lat="31.87331172" lon="-109.23432239">
<ele>1749.2</ele>
<time>2021-03-23T23:09:01Z</time>
<speed>2.4</speed>
</trkpt>
<trkpt lat="31.87336191" lon="-109.23432413">
<ele>1749.6</ele>
<time>2021-03-23T23:09:03Z</time>
<speed>2.7</speed>
</trkpt>
<trkpt lat="31.87340731" lon="-109.23432451">
<ele>1749.8</ele>
<time>2021-03-23T23:09:05Z</time>
<speed>2.3</speed>
</trkpt>
<trkpt lat="31.8734483" lon="-109.23432512">
<ele>1749</ele>
<time>2021-03-23T23:09:07Z</time>
<speed>2.3</speed>
</trkpt>
<trkpt lat="31.87348697" lon="-109.23432672">
<ele>1749.3</ele>
<time>2021-03-23T23:09:09Z</time>
<speed>2.2</speed>
</trkpt>
<trkpt lat="31.87352857" lon="-109.2343293">
<ele>1750.3</ele>
<time>2021-03-23T23:09:11Z</time>
<speed>2.3</speed>
</trkpt>
<trkpt lat="31.87357357" lon="-109.2343345">
<ele>1751.1</ele>
<time>2021-03-23T23:09:13Z</time>
<speed>2.4</speed>
</trkpt>
<trkpt lat="31.8736194" lon="-109.23434254">
<ele>1751</ele>
<time>2021-03-23T23:09:15Z</time>
<speed>2.5</speed>
</trkpt>
<trkpt lat="31.87366623" lon="-109.2343524">
<ele>1751.6</ele>
<time>2021-03-23T23:09:17Z</time>
<speed>2.8</speed>
</trkpt>
<trkpt lat="31.87372123" lon="-109.23436927">
<ele>1751.8</ele>
<time>2021-03-23T23:09:19Z</time>
<speed>3.3</speed>
</trkpt>
<trkpt lat="31.87378292" lon="-109.23438951">
<ele>1751.8</ele>
<time>2021-03-23T23:09:21Z</time>
<speed>3.6</speed>
</trkpt>
<trkpt lat="31.87385095" lon="-109.23441974">
<ele>1752.7</ele>
<time>2021-03-23T23:09:23Z</time>
<speed>4.1</speed>
</trkpt>
<trkpt lat="31.87388543" lon="-109.23444133">
<ele>1752.8</ele>
<time>2021-03-23T23:09:24Z</time>
<speed>4.2</speed>
</trkpt>
<trkpt lat="31.87392272" lon="-109.2344666">
<ele>1753.7</ele>
<time>2021-03-23T23:09:25Z</time>
<speed>4.4</speed>
</trkpt>
<trkpt lat="31.87395753" lon="-109.23449478">
<ele>1754</ele>
<time>2021-03-23T23:09:26Z</time>
<speed>4.6</speed>
</trkpt>
<trkpt lat="31.87399022" lon="-109.23452442">
<ele>1755.1</ele>
<time>2021-03-23T23:09:27Z</time>
<speed>4.6</speed>
</trkpt>
<trkpt lat="31.87401895" lon="-109.23455533">
<ele>1754.8</ele>
<time>2021-03-23T23:09:28Z</time>
<speed>4.5</speed>
</trkpt>
<trkpt lat="31.87404596" lon="-109.23458758">
<ele>1755</ele>
<time>2021-03-23T23:09:29Z</time>
<speed>4.3</speed>
</trkpt>
<trkpt lat="31.87407313" lon="-109.23462114">
<ele>1755.3</ele>
<time>2021-03-23T23:09:30Z</time>
<speed>4.1</speed>
</trkpt>
<trkpt lat="31.8741215" lon="-109.23468529">
<ele>1755.4</ele>
<time>2021-03-23T23:09:32Z</time>
<speed>4</speed>
</trkpt>
<trkpt lat="31.87414506" lon="-109.23471766">
<ele>1755.6</ele>
<time>2021-03-23T23:09:33Z</time>
<speed>4.2</speed>
</trkpt>
<trkpt lat="31.87417084" lon="-109.23475158">
<ele>1755.4</ele>
<time>2021-03-23T23:09:34Z</time>
<speed>4.3</speed>
</trkpt>
<trkpt lat="31.87419884" lon="-109.23478516">
<ele>1755.3</ele>
<time>2021-03-23T23:09:35Z</time>
<speed>4.5</speed>
</trkpt>
<trkpt lat="31.87422663" lon="-109.23481454">
<ele>1755.1</ele>
<time>2021-03-23T23:09:36Z</time>
<speed>4.4</speed>
</trkpt>
<trkpt lat="31.87428464" lon="-109.23485436">
<ele>1755.8</ele>
<time>2021-03-23T23:09:38Z</time>
<speed>3.8</speed>
</trkpt>
<trkpt lat="31.87435237" lon="-109.23487954">
<ele>1755.4</ele>
<time>2021-03-23T23:09:40Z</time>
<speed>4</speed>
</trkpt>
<trkpt lat="31.87438829" lon="-109.23488788">
<ele>1754.8</ele>
<time>2021-03-23T23:09:41Z</time>
<speed>4.1</speed>
</trkpt>
<trkpt lat="31.87442844" lon="-109.23489415">
<ele>1754.2</ele>
<time>2021-03-23T23:09:42Z</time>
<speed>4.4</speed>
</trkpt>
<trkpt lat="31.87447005" lon="-109.2348957">
<ele>1754.2</ele>
<time>2021-03-23T23:09:43Z</time>
<speed>4.6</speed>
</trkpt>
<trkpt lat="31.87451167" lon="-109.23489054">
<ele>1754.3</ele>
<time>2021-03-23T23:09:44Z</time>
<speed>4.6</speed>
</trkpt>
<trkpt lat="31.874548" lon="-109.23487204">
<ele>1754.7</ele>
<time>2021-03-23T23:09:45Z</time>
<speed>4.4</speed>
</trkpt>
<trkpt lat="31.87458119" lon="-109.23484243">
<ele>1754.7</ele>
<time>2021-03-23T23:09:46Z</time>
<speed>4.7</speed>
</trkpt>
<trkpt lat="31.87460768" lon="-109.23480995">
<ele>1754.3</ele>
<time>2021-03-23T23:09:47Z</time>
<speed>4.2</speed>
</trkpt>
<trkpt lat="31.87462723" lon="-109.23476883">
<ele>1754</ele>
<time>2021-03-23T23:09:48Z</time>
<speed>4.5</speed>
</trkpt>
<trkpt lat="31.87463921" lon="-109.23472153">
<ele>1753.4</ele>
<time>2021-03-23T23:09:49Z</time>
<speed>4.7</speed>
</trkpt>
<trkpt lat="31.87464906" lon="-109.23467246">
<ele>1753.2</ele>
<time>2021-03-23T23:09:50Z</time>
<speed>4.7</speed>
</trkpt>
<trkpt lat="31.87465482" lon="-109.23462013">
<ele>1753.1</ele>
<time>2021-03-23T23:09:51Z</time>
<speed>5.1</speed>
</trkpt>
<trkpt lat="31.87465428" lon="-109.23456448">
<ele>1752.9</ele>
<time>2021-03-23T23:09:52Z</time>
<speed>5.3</speed>
</trkpt>
<trkpt lat="31.87464731" lon="-109.23450772">
<ele>1752</ele>
<time>2021-03-23T23:09:53Z</time>
<speed>5.5</speed>
</trkpt>
<trkpt lat="31.87463867" lon="-109.23444963">
<ele>1751.4</ele>
<time>2021-03-23T23:09:54Z</time>
<speed>5.4</speed>
</trkpt>
<trkpt lat="31.87462945" lon="-109.23439733">
<ele>1750.3</ele>
<time>2021-03-23T23:09:55Z</time>
<speed>5.3</speed>
</trkpt>
<trkpt lat="31.87461625" lon="-109.23434435">
<ele>1749.7</ele>
<time>2021-03-23T23:09:56Z</time>
<speed>5.2</speed>
</trkpt>
<trkpt lat="31.87460335" lon="-109.23429212">
<ele>1749.1</ele>
<time>2021-03-23T23:09:57Z</time>
<speed>5.2</speed>
</trkpt>
<trkpt lat="31.87458663" lon="-109.23423303">
<ele>1748.2</ele>
<time>2021-03-23T23:09:58Z</time>
<speed>5.4</speed>
</trkpt>
<trkpt lat="31.87457582" lon="-109.23417648">
<ele>1747.7</ele>
<time>2021-03-23T23:09:59Z</time>
<speed>5.4</speed>
</trkpt>
<trkpt lat="31.87456721" lon="-109.23411823">
<ele>1747.3</ele>
<time>2021-03-23T23:10:00Z</time>
<speed>5.7</speed>
</trkpt>
<trkpt lat="31.87456655" lon="-109.23405454">
<ele>1746.9</ele>
<time>2021-03-23T23:10:01Z</time>
<speed>5.9</speed>
</trkpt>
<trkpt lat="31.87456584" lon="-109.23398846">
<ele>1746.6</ele>
<time>2021-03-23T23:10:02Z</time>
<speed>6.1</speed>
</trkpt>
<trkpt lat="31.87456761" lon="-109.23392485">
<ele>1746</ele>
<time>2021-03-23T23:10:03Z</time>
<speed>6.2</speed>
</trkpt>
<trkpt lat="31.87457042" lon="-109.23385588">
<ele>1745.6</ele>
<time>2021-03-23T23:10:04Z</time>
<speed>6.5</speed>
</trkpt>
<trkpt lat="31.87457222" lon="-109.23378435">
<ele>1745.3</ele>
<time>2021-03-23T23:10:05Z</time>
<speed>6.7</speed>
</trkpt>
<trkpt lat="31.8745743" lon="-109.23370994">
<ele>1744.9</ele>
<time>2021-03-23T23:10:06Z</time>
<speed>6.9</speed>
</trkpt>
<trkpt lat="31.87457924" lon="-109.23363897">
<ele>1744.8</ele>
<time>2021-03-23T23:10:07Z</time>
<speed>6.9</speed>
</trkpt>
<trkpt lat="31.87458447" lon="-109.23356218">
<ele>1744.7</ele>
<time>2021-03-23T23:10:08Z</time>
<speed>6.9</speed>
</trkpt>
<trkpt lat="31.87459151" lon="-109.23348536">
<ele>1744.4</ele>
<time>2021-03-23T23:10:09Z</time>
<speed>6.9</speed>
</trkpt>
<trkpt lat="31.87460072" lon="-109.23341369">
<ele>1744.2</ele>
<time>2021-03-23T23:10:10Z</time>
<speed>7</speed>
</trkpt>
<trkpt lat="31.87460962" lon="-109.23334091">
<ele>1744.1</ele>
<time>2021-03-23T23:10:11Z</time>
<speed>7.1</speed>
</trkpt>
<trkpt lat="31.87462454" lon="-109.23326613">
<ele>1743.8</ele>
<time>2021-03-23T23:10:12Z</time>
<speed>7.2</speed>
</trkpt>
<trkpt lat="31.87464239" lon="-109.2331947">
<ele>1743.9</ele>
<time>2021-03-23T23:10:13Z</time>
<speed>7.2</speed>
</trkpt>
<trkpt lat="31.8746605" lon="-109.23312303">
<ele>1744</ele>
<time>2021-03-23T23:10:14Z</time>
<speed>7.1</speed>
</trkpt>
<trkpt lat="31.87467833" lon="-109.23305392">
<ele>1743.9</ele>
<time>2021-03-23T23:10:15Z</time>
<speed>6.8</speed>
</trkpt>
<trkpt lat="31.87469809" lon="-109.23298468">
<ele>1744</ele>
<time>2021-03-23T23:10:16Z</time>
<speed>6.8</speed>
</trkpt>
<trkpt lat="31.8747197" lon="-109.23291815">
<ele>1744.3</ele>
<time>2021-03-23T23:10:17Z</time>
<speed>6.7</speed>
</trkpt>
<trkpt lat="31.8747446" lon="-109.23285305">
<ele>1744.5</ele>
<time>2021-03-23T23:10:18Z</time>
<speed>6.7</speed>
</trkpt>
<trkpt lat="31.87477237" lon="-109.2327905">
<ele>1744.8</ele>
<time>2021-03-23T23:10:19Z</time>
<speed>6.7</speed>
</trkpt>
<trkpt lat="31.87480614" lon="-109.23273297">
<ele>1745.1</ele>
<time>2021-03-23T23:10:20Z</time>
<speed>6.5</speed>
</trkpt>
<trkpt lat="31.87484233" lon="-109.23267504">
<ele>1745.3</ele>
<time>2021-03-23T23:10:21Z</time>
<speed>6.4</speed>
</trkpt>
<trkpt lat="31.87488064" lon="-109.23262628">
<ele>1745.8</ele>
<time>2021-03-23T23:10:22Z</time>
<speed>6.4</speed>
</trkpt>
<trkpt lat="31.87492394" lon="-109.23257867">
<ele>1745.8</ele>
<time>2021-03-23T23:10:23Z</time>
<speed>6.3</speed>
</trkpt>
<trkpt lat="31.87496731" lon="-109.23253594">
<ele>1746.3</ele>
<time>2021-03-23T23:10:24Z</time>
<speed>6.4</speed>
</trkpt>
<trkpt lat="31.87501568" lon="-109.23249594">
<ele>1746.5</ele>
<time>2021-03-23T23:10:25Z</time>
<speed>6.5</speed>
</trkpt>
<trkpt lat="31.8750724" lon="-109.23246572">
<ele>1746.8</ele>
<time>2021-03-23T23:10:26Z</time>
<speed>6.7</speed>
</trkpt>
<trkpt lat="31.87513195" lon="-109.232435">
<ele>1746.9</ele>
<time>2021-03-23T23:10:27Z</time>
<speed>7.1</speed>
</trkpt>
<trkpt lat="31.87519429" lon="-109.23240688">
<ele>1747.1</ele>
<time>2021-03-23T23:10:28Z</time>
<speed>7.3</speed>
</trkpt>
<trkpt lat="31.87525247" lon="-109.23237742">
<ele>1747.2</ele>
<time>2021-03-23T23:10:29Z</time>
<speed>7.1</speed>
</trkpt>
<trkpt lat="31.87531192" lon="-109.23234882">
<ele>1747.3</ele>
<time>2021-03-23T23:10:30Z</time>
<speed>7.1</speed>
</trkpt>
<trkpt lat="31.87536838" lon="-109.23231701">
<ele>1747.7</ele>
<time>2021-03-23T23:10:31Z</time>
<speed>6.9</speed>
</trkpt>
<trkpt lat="31.87542969" lon="-109.2322857">
<ele>1748.2</ele>
<time>2021-03-23T23:10:32Z</time>
<speed>6.9</speed>
</trkpt>
<trkpt lat="31.87548826" lon="-109.23225516">
<ele>1748.8</ele>
<time>2021-03-23T23:10:33Z</time>
<speed>6.8</speed>
</trkpt>
<trkpt lat="31.87554047" lon="-109.23222258">
<ele>1748.8</ele>
<time>2021-03-23T23:10:34Z</time>
<speed>6.5</speed>
</trkpt>
<trkpt lat="31.87559264" lon="-109.23219681">
<ele>1749.9</ele>
<time>2021-03-23T23:10:35Z</time>
<speed>6.4</speed>
</trkpt>
<trkpt lat="31.87564424" lon="-109.23217002">
<ele>1750.5</ele>
<time>2021-03-23T23:10:36Z</time>
<speed>6.2</speed>
</trkpt>
<trkpt lat="31.87569338" lon="-109.23214412">
<ele>1750.9</ele>
<time>2021-03-23T23:10:37Z</time>
<speed>6.2</speed>
</trkpt>
<trkpt lat="31.87574615" lon="-109.2321103">
<ele>1751.3</ele>
<time>2021-03-23T23:10:38Z</time>
<speed>6.3</speed>
</trkpt>
<trkpt lat="31.8757912" lon="-109.23206898">
<ele>1751.6</ele>
<time>2021-03-23T23:10:39Z</time>
<speed>6.5</speed>
</trkpt>
<trkpt lat="31.8758383" lon="-109.23203344">
<ele>1751.2</ele>
<time>2021-03-23T23:10:40Z</time>
<speed>6.4</speed>
</trkpt>
<trkpt lat="31.87588509" lon="-109.23199079">
<ele>1751.5</ele>
<time>2021-03-23T23:10:41Z</time>
<speed>6.6</speed>
</trkpt>
<trkpt lat="31.87592646" lon="-109.23193745">
<ele>1750.9</ele>
<time>2021-03-23T23:10:42Z</time>
<speed>6.7</speed>
</trkpt>
<trkpt lat="31.87595961" lon="-109.23188094">
<ele>1750.3</ele>
<time>2021-03-23T23:10:43Z</time>
<speed>6.4</speed>
</trkpt>
<trkpt lat="31.87598984" lon="-109.23181832">
<ele>1749.7</ele>
<time>2021-03-23T23:10:44Z</time>
<speed>6.5</speed>
</trkpt>
<trkpt lat="31.87601063" lon="-109.23175165">
<ele>1748.9</ele>
<time>2021-03-23T23:10:45Z</time>
<speed>6.9</speed>
</trkpt>
<trkpt lat="31.87603314" lon="-109.23167571">
<ele>1747.9</ele>
<time>2021-03-23T23:10:46Z</time>
<speed>7.3</speed>
</trkpt>
<trkpt lat="31.87605622" lon="-109.23159517">
<ele>1747.3</ele>
<time>2021-03-23T23:10:47Z</time>
<speed>7.7</speed>
</trkpt>
<trkpt lat="31.87607791" lon="-109.23151379">
<ele>1746.8</ele>
<time>2021-03-23T23:10:48Z</time>
<speed>8</speed>
</trkpt>
<trkpt lat="31.87610149" lon="-109.23143469">
<ele>1746.3</ele>
<time>2021-03-23T23:10:49Z</time>
<speed>8</speed>
</trkpt>
<trkpt lat="31.87611979" lon="-109.23135909">
<ele>1745.9</ele>
<time>2021-03-23T23:10:50Z</time>
<speed>7.6</speed>
</trkpt>
<trkpt lat="31.8761383" lon="-109.23128692">
<ele>1745.2</ele>
<time>2021-03-23T23:10:51Z</time>
<speed>7</speed>
</trkpt>
<trkpt lat="31.87615313" lon="-109.23122372">
<ele>1744.6</ele>
<time>2021-03-23T23:10:52Z</time>
<speed>6.3</speed>
</trkpt>
<trkpt lat="31.87616569" lon="-109.23116612">
<ele>1744.5</ele>
<time>2021-03-23T23:10:53Z</time>
<speed>5.6</speed>
</trkpt>
<trkpt lat="31.87617904" lon="-109.23111679">
<ele>1743.7</ele>
<time>2021-03-23T23:10:54Z</time>
<speed>5</speed>
</trkpt>
<trkpt lat="31.87619218" lon="-109.23106764">
<ele>1743.1</ele>
<time>2021-03-23T23:10:55Z</time>
<speed>4.7</speed>
</trkpt>
<trkpt lat="31.87619703" lon="-109.23101651">
<ele>1742.4</ele>
<time>2021-03-23T23:10:56Z</time>
<speed>4.6</speed>
</trkpt>
<trkpt lat="31.87620786" lon="-109.23096962">
<ele>1742.3</ele>
<time>2021-03-23T23:10:57Z</time>
<speed>4.7</speed>
</trkpt>
<trkpt lat="31.87621955" lon="-109.23092612">
<ele>1742</ele>
<time>2021-03-23T23:10:58Z</time>
<speed>4.7</speed>
</trkpt>
<trkpt lat="31.87622626" lon="-109.23087986">
<ele>1742.3</ele>
<time>2021-03-23T23:10:59Z</time>
<speed>4.6</speed>
</trkpt>
<trkpt lat="31.87622581" lon="-109.23083439">
<ele>1742.2</ele>
<time>2021-03-23T23:11:00Z</time>
<speed>4</speed>
</trkpt>
<trkpt lat="31.87622742" lon="-109.2307915">
<ele>1742.7</ele>
<time>2021-03-23T23:11:01Z</time>
<speed>4.1</speed>
</trkpt>
<trkpt lat="31.8762328" lon="-109.23074685">
<ele>1742</ele>
<time>2021-03-23T23:11:02Z</time>
<speed>4.2</speed>
</trkpt>
<trkpt lat="31.87623902" lon="-109.23070216">
<ele>1741.4</ele>
<time>2021-03-23T23:11:03Z</time>
<speed>4.2</speed>
</trkpt>
<trkpt lat="31.87624804" lon="-109.23065706">
<ele>1741.6</ele>
<time>2021-03-23T23:11:04Z</time>
<speed>4.2</speed>
</trkpt>
<trkpt lat="31.87625694" lon="-109.23060942">
<ele>1741</ele>
<time>2021-03-23T23:11:05Z</time>
<speed>4.4</speed>
</trkpt>
<trkpt lat="31.87630032" lon="-109.23055701">
<ele>1741.3</ele>
<time>2021-03-23T23:11:06Z</time>
<speed>4.6</speed>
</trkpt>
<trkpt lat="31.87630417" lon="-109.23049568">
<ele>1740.5</ele>
<time>2021-03-23T23:11:07Z</time>
<speed>5.2</speed>
</trkpt>
<trkpt lat="31.87630663" lon="-109.23043165">
<ele>1740.1</ele>
<time>2021-03-23T23:11:08Z</time>
<speed>5.8</speed>
</trkpt>
<trkpt lat="31.87631038" lon="-109.23036542">
<ele>1740.1</ele>
<time>2021-03-23T23:11:09Z</time>
<speed>5.9</speed>
</trkpt>
<trkpt lat="31.87631934" lon="-109.23029621">
<ele>1739.9</ele>
<time>2021-03-23T23:11:10Z</time>
<speed>6.3</speed>
</trkpt>
<trkpt lat="31.87632888" lon="-109.23022736">
<ele>1739.5</ele>
<time>2021-03-23T23:11:11Z</time>
<speed>6.6</speed>
</trkpt>
<trkpt lat="31.87633543" lon="-109.2301549">
<ele>1739</ele>
<time>2021-03-23T23:11:12Z</time>
<speed>6.8</speed>
</trkpt>
<trkpt lat="31.8763459" lon="-109.23008271">
<ele>1738.8</ele>
<time>2021-03-23T23:11:13Z</time>
<speed>6.8</speed>
</trkpt>
<trkpt lat="31.87636348" lon="-109.23001856">
<ele>1739.2</ele>
<time>2021-03-23T23:11:14Z</time>
<speed>6.6</speed>
</trkpt>
<trkpt lat="31.87638332" lon="-109.22994837">
<ele>1739.2</ele>
<time>2021-03-23T23:11:15Z</time>
<speed>6.4</speed>
</trkpt>
<trkpt lat="31.87639951" lon="-109.22988258">
<ele>1738.9</ele>
<time>2021-03-23T23:11:16Z</time>
<speed>6.3</speed>
</trkpt>
<trkpt lat="31.87642073" lon="-109.22982352">
<ele>1738.4</ele>
<time>2021-03-23T23:11:17Z</time>
<speed>5.4</speed>
</trkpt>
<trkpt lat="31.87644461" lon="-109.22975931">
<ele>1738</ele>
<time>2021-03-23T23:11:18Z</time>
<speed>5.7</speed>
</trkpt>
<trkpt lat="31.87647443" lon="-109.22969117">
<ele>1737.9</ele>
<time>2021-03-23T23:11:19Z</time>
<speed>6.9</speed>
</trkpt>
<trkpt lat="31.87650878" lon="-109.22963038">
<ele>1738</ele>
<time>2021-03-23T23:11:20Z</time>
<speed>6.9</speed>
</trkpt>
<trkpt lat="31.8765465" lon="-109.22957456">
<ele>1737.3</ele>
<time>2021-03-23T23:11:21Z</time>
<speed>6.8</speed>
</trkpt>
<trkpt lat="31.876584" lon="-109.22952573">
<ele>1736.8</ele>
<time>2021-03-23T23:11:22Z</time>
<speed>6.4</speed>
</trkpt>
<trkpt lat="31.87662843" lon="-109.22947834">
<ele>1736.9</ele>
<time>2021-03-23T23:11:23Z</time>
<speed>6.4</speed>
</trkpt>
<trkpt lat="31.87667131" lon="-109.22943579">
<ele>1736.9</ele>
<time>2021-03-23T23:11:24Z</time>
<speed>6.1</speed>
</trkpt>
<trkpt lat="31.87670531" lon="-109.22939504">
<ele>1736.1</ele>
<time>2021-03-23T23:11:25Z</time>
<speed>6</speed>
</trkpt>
<trkpt lat="31.87674386" lon="-109.2293498">
<ele>1735.9</ele>
<time>2021-03-23T23:11:26Z</time>
<speed>5.9</speed>
</trkpt>
<trkpt lat="31.87678165" lon="-109.22930461">
<ele>1735.7</ele>
<time>2021-03-23T23:11:27Z</time>
<speed>5.9</speed>
</trkpt>
<trkpt lat="31.87681478" lon="-109.22925547">
<ele>1735.3</ele>
<time>2021-03-23T23:11:28Z</time>
<speed>6</speed>
</trkpt>
<trkpt lat="31.87684407" lon="-109.2292036">
<ele>1734.9</ele>
<time>2021-03-23T23:11:29Z</time>
<speed>6.1</speed>
</trkpt>
<trkpt lat="31.87687562" lon="-109.22914546">
<ele>1734.9</ele>
<time>2021-03-23T23:11:30Z</time>
<speed>6.3</speed>
</trkpt>
<trkpt lat="31.87690117" lon="-109.22908455">
<ele>1734.7</ele>
<time>2021-03-23T23:11:31Z</time>
<speed>6.4</speed>
</trkpt>
<trkpt lat="31.87692642" lon="-109.22902401">
<ele>1734</ele>
<time>2021-03-23T23:11:32Z</time>
<speed>6.4</speed>
</trkpt>
<trkpt lat="31.87694377" lon="-109.22896052">
<ele>1733.2</ele>
<time>2021-03-23T23:11:33Z</time>
<speed>6.4</speed>
</trkpt>
<trkpt lat="31.87696341" lon="-109.22889265">
<ele>1732.6</ele>
<time>2021-03-23T23:11:34Z</time>
<speed>6.7</speed>
</trkpt>
<trkpt lat="31.87698153" lon="-109.22882384">
<ele>1732.1</ele>
<time>2021-03-23T23:11:35Z</time>
<speed>6.9</speed>
</trkpt>
<trkpt lat="31.87700104" lon="-109.22875064">
<ele>1731.7</ele>
<time>2021-03-23T23:11:36Z</time>
<speed>7.1</speed>
</trkpt>
<trkpt lat="31.87701978" lon="-109.22868095">
<ele>1730.9</ele>
<time>2021-03-23T23:11:37Z</time>
<speed>6.9</speed>
</trkpt>
<trkpt lat="31.87703925" lon="-109.22860456">
<ele>1730.3</ele>
<time>2021-03-23T23:11:38Z</time>
<speed>7.3</speed>
</trkpt>
<trkpt lat="31.87705621" lon="-109.22852948">
<ele>1730.2</ele>
<time>2021-03-23T23:11:39Z</time>
<speed>7.4</speed>
</trkpt>
<trkpt lat="31.87707025" lon="-109.22845023">
<ele>1730.2</ele>
<time>2021-03-23T23:11:40Z</time>
<speed>7.4</speed>
</trkpt>
<trkpt lat="31.87709042" lon="-109.22837845">
<ele>1729.5</ele>
<time>2021-03-23T23:11:41Z</time>
<speed>7.4</speed>
</trkpt>
<trkpt lat="31.87710753" lon="-109.22830183">
<ele>1729.3</ele>
<time>2021-03-23T23:11:42Z</time>
<speed>7.5</speed>
</trkpt>
<trkpt lat="31.87712665" lon="-109.22822501">
<ele>1729.1</ele>
<time>2021-03-23T23:11:43Z</time>
<speed>7.5</speed>
</trkpt>
<trkpt lat="31.87714646" lon="-109.22815032">
<ele>1728.6</ele>
<time>2021-03-23T23:11:44Z</time>
<speed>7.5</speed>
</trkpt>
<trkpt lat="31.87716727" lon="-109.22807495">
<ele>1727.7</ele>
<time>2021-03-23T23:11:45Z</time>
<speed>7.2</speed>
</trkpt>
<trkpt lat="31.87718408" lon="-109.22800407">
<ele>1727.4</ele>
<time>2021-03-23T23:11:46Z</time>
<speed>6.9</speed>
</trkpt>
<trkpt lat="31.87720496" lon="-109.22793578">
<ele>1727.6</ele>
<time>2021-03-23T23:11:47Z</time>
<speed>6.9</speed>
</trkpt>
<trkpt lat="31.87721975" lon="-109.22786694">
<ele>1726.9</ele>
<time>2021-03-23T23:11:48Z</time>
<speed>6.8</speed>
</trkpt>
<trkpt lat="31.87723515" lon="-109.22779547">
<ele>1726.4</ele>
<time>2021-03-23T23:11:49Z</time>
<speed>6.9</speed>
</trkpt>
<trkpt lat="31.87725267" lon="-109.22772207">
<ele>1725.9</ele>
<time>2021-03-23T23:11:50Z</time>
<speed>7.1</speed>
</trkpt>
<trkpt lat="31.87727061" lon="-109.22764593">
<ele>1725.1</ele>
<time>2021-03-23T23:11:51Z</time>
<speed>7.4</speed>
</trkpt>
<trkpt lat="31.87729131" lon="-109.22756608">
<ele>1724.8</ele>
<time>2021-03-23T23:11:52Z</time>
<speed>7.7</speed>
</trkpt>
<trkpt lat="31.8773153" lon="-109.22748464">
<ele>1723.9</ele>
<time>2021-03-23T23:11:53Z</time>
<speed>8.1</speed>
</trkpt>
<trkpt lat="31.87734215" lon="-109.22740453">
<ele>1723.2</ele>
<time>2021-03-23T23:11:54Z</time>
<speed>8.2</speed>
</trkpt>
<trkpt lat="31.87736953" lon="-109.22732719">
<ele>1722.3</ele>
<time>2021-03-23T23:11:55Z</time>
<speed>8.1</speed>
</trkpt>
<trkpt lat="31.87740304" lon="-109.22725535">
<ele>1721.6</ele>
<time>2021-03-23T23:11:56Z</time>
<speed>7.8</speed>
</trkpt>
<trkpt lat="31.87744036" lon="-109.22718079">
<ele>1721</ele>
<time>2021-03-23T23:11:57Z</time>
<speed>7.9</speed>
</trkpt>
<trkpt lat="31.87748128" lon="-109.22710793">
<ele>1721.2</ele>
<time>2021-03-23T23:11:58Z</time>
<speed>8</speed>
</trkpt>
<trkpt lat="31.87752654" lon="-109.22703895">
<ele>1721.1</ele>
<time>2021-03-23T23:11:59Z</time>
<speed>8.2</speed>
</trkpt>
<trkpt lat="31.87757599" lon="-109.22698405">
<ele>1720.3</ele>
<time>2021-03-23T23:12:00Z</time>
<speed>7.7</speed>
</trkpt>
<trkpt lat="31.87762568" lon="-109.22693014">
<ele>1720</ele>
<time>2021-03-23T23:12:01Z</time>
<speed>7.7</speed>
</trkpt>
<trkpt lat="31.87768098" lon="-109.22687922">
<ele>1719.3</ele>
<time>2021-03-23T23:12:02Z</time>
<speed>7.4</speed>
</trkpt>
<trkpt lat="31.87773723" lon="-109.22683226">
<ele>1719.2</ele>
<time>2021-03-23T23:12:03Z</time>
<speed>7.3</speed>
</trkpt>
<trkpt lat="31.87778992" lon="-109.22679113">
<ele>1719</ele>
<time>2021-03-23T23:12:04Z</time>
<speed>7.1</speed>
</trkpt>
<trkpt lat="31.87784364" lon="-109.2267532">
<ele>1718.8</ele>
<time>2021-03-23T23:12:05Z</time>
<speed>7.1</speed>
</trkpt>
<trkpt lat="31.87789768" lon="-109.22670896">
<ele>1718.6</ele>
<time>2021-03-23T23:12:06Z</time>
<speed>7.2</speed>
</trkpt>
<trkpt lat="31.87794585" lon="-109.22666258">
<ele>1718.3</ele>
<time>2021-03-23T23:12:07Z</time>
<speed>7.1</speed>
</trkpt>
<trkpt lat="31.87798626" lon="-109.22660957">
<ele>1718.1</ele>
<time>2021-03-23T23:12:08Z</time>
<speed>6.7</speed>
</trkpt>
<trkpt lat="31.87801537" lon="-109.22655144">
<ele>1717.7</ele>
<time>2021-03-23T23:12:09Z</time>
<speed>6.3</speed>
</trkpt>
<trkpt lat="31.87803158" lon="-109.22648502">
<ele>1717.2</ele>
<time>2021-03-23T23:12:10Z</time>
<speed>6.2</speed>
</trkpt>
<trkpt lat="31.87804478" lon="-109.22641054">
<ele>1717</ele>
<time>2021-03-23T23:12:11Z</time>
<speed>6.6</speed>
</trkpt>
<trkpt lat="31.87805539" lon="-109.22634576">
<ele>1716.4</ele>
<time>2021-03-23T23:12:12Z</time>
<speed>6.3</speed>
</trkpt>
<trkpt lat="31.87806111" lon="-109.22627563">
<ele>1716</ele>
<time>2021-03-23T23:12:13Z</time>
<speed>6.2</speed>
</trkpt>
<trkpt lat="31.87807115" lon="-109.22620614">
<ele>1715.7</ele>
<time>2021-03-23T23:12:14Z</time>
<speed>6.5</speed>
</trkpt>
<trkpt lat="31.87807753" lon="-109.22613855">
<ele>1714.8</ele>
<time>2021-03-23T23:12:15Z</time>
<speed>6.4</speed>
</trkpt>
<trkpt lat="31.87808226" lon="-109.2260739">
<ele>1714.2</ele>
<time>2021-03-23T23:12:16Z</time>
<speed>6.5</speed>
</trkpt>
<trkpt lat="31.87808496" lon="-109.22601449">
<ele>1713.7</ele>
<time>2021-03-23T23:12:17Z</time>
<speed>5.9</speed>
</trkpt>
<trkpt lat="31.87808578" lon="-109.22595742">
<ele>1713.9</ele>
<time>2021-03-23T23:12:18Z</time>
<speed>5.5</speed>
</trkpt>
<trkpt lat="31.87809291" lon="-109.22590614">
<ele>1713.9</ele>
<time>2021-03-23T23:12:19Z</time>
<speed>4.9</speed>
</trkpt>
<trkpt lat="31.87808533" lon="-109.22585455">
<ele>1713.7</ele>
<time>2021-03-23T23:12:20Z</time>
<speed>4.8</speed>
</trkpt>
<trkpt lat="31.87806441" lon="-109.22581067">
<ele>1713.1</ele>
<time>2021-03-23T23:12:21Z</time>
<speed>4.6</speed>
</trkpt>
<trkpt lat="31.87801928" lon="-109.22574703">
<ele>1712.5</ele>
<time>2021-03-23T23:12:23Z</time>
<speed>4.2</speed>
</trkpt>
<trkpt lat="31.87798139" lon="-109.22572979">
<ele>1712.1</ele>
<time>2021-03-23T23:12:24Z</time>
<speed>4.1</speed>
</trkpt>
<trkpt lat="31.87794078" lon="-109.2257262">
<ele>1711.8</ele>
<time>2021-03-23T23:12:25Z</time>
<speed>4.4</speed>
</trkpt>
<trkpt lat="31.8778946" lon="-109.22573039">
<ele>1711.7</ele>
<time>2021-03-23T23:12:26Z</time>
<speed>4.9</speed>
</trkpt>
<trkpt lat="31.87784403" lon="-109.22575582">
<ele>1710.7</ele>
<time>2021-03-23T23:12:27Z</time>
<speed>5.5</speed>
</trkpt>
<trkpt lat="31.8778002" lon="-109.2257897">
<ele>1711.1</ele>
<time>2021-03-23T23:12:28Z</time>
<speed>6</speed>
</trkpt>
<trkpt lat="31.87775024" lon="-109.22583699">
<ele>1710.5</ele>
<time>2021-03-23T23:12:29Z</time>
<speed>6.5</speed>
</trkpt>
<trkpt lat="31.87770356" lon="-109.22588322">
<ele>1709.8</ele>
<time>2021-03-23T23:12:30Z</time>
<speed>6.8</speed>
</trkpt>
<trkpt lat="31.87765566" lon="-109.22592865">
<ele>1709.8</ele>
<time>2021-03-23T23:12:31Z</time>
<speed>6.8</speed>
</trkpt>
<trkpt lat="31.87761023" lon="-109.22597231">
<ele>1709</ele>
<time>2021-03-23T23:12:32Z</time>
<speed>6.7</speed>
</trkpt>
<trkpt lat="31.87756344" lon="-109.22601732">
<ele>1708.6</ele>
<time>2021-03-23T23:12:33Z</time>
<speed>6.7</speed>
</trkpt>
<trkpt lat="31.87751454" lon="-109.22606527">
<ele>1708</ele>
<time>2021-03-23T23:12:34Z</time>
<speed>6.9</speed>
</trkpt>
<trkpt lat="31.87746659" lon="-109.2261144">
<ele>1707.4</ele>
<time>2021-03-23T23:12:35Z</time>
<speed>6.9</speed>
</trkpt>
<trkpt lat="31.87742393" lon="-109.22616174">
<ele>1706.4</ele>
<time>2021-03-23T23:12:36Z</time>
<speed>6.6</speed>
</trkpt>
<trkpt lat="31.87738008" lon="-109.22620412">
<ele>1706.2</ele>
<time>2021-03-23T23:12:37Z</time>
<speed>6.4</speed>
</trkpt>
<trkpt lat="31.87733425" lon="-109.22624274">
<ele>1705.4</ele>
<time>2021-03-23T23:12:38Z</time>
<speed>6.3</speed>
</trkpt>
<trkpt lat="31.87728566" lon="-109.2262782">
<ele>1705</ele>
<time>2021-03-23T23:12:39Z</time>
<speed>6.2</speed>
</trkpt>
<trkpt lat="31.87724112" lon="-109.2263012">
<ele>1704</ele>
<time>2021-03-23T23:12:40Z</time>
<speed>5.9</speed>
</trkpt>
<trkpt lat="31.87719342" lon="-109.22631337">
<ele>1704.3</ele>
<time>2021-03-23T23:12:41Z</time>
<speed>5.4</speed>
</trkpt>
<trkpt lat="31.87714697" lon="-109.22630989">
<ele>1703.9</ele>
<time>2021-03-23T23:12:42Z</time>
<speed>4.9</speed>
</trkpt>
<trkpt lat="31.8770809" lon="-109.22627939">
<ele>1702.4</ele>
<time>2021-03-23T23:12:44Z</time>
<speed>4.1</speed>
</trkpt>
<trkpt lat="31.87705664" lon="-109.22622947">
<ele>1702.1</ele>
<time>2021-03-23T23:12:45Z</time>
<speed>4.7</speed>
</trkpt>
<trkpt lat="31.87704636" lon="-109.22618008">
<ele>1701.7</ele>
<time>2021-03-23T23:12:46Z</time>
<speed>4.5</speed>
</trkpt>
<trkpt lat="31.87705054" lon="-109.22613218">
<ele>1701.5</ele>
<time>2021-03-23T23:12:47Z</time>
<speed>4.8</speed>
</trkpt>
<trkpt lat="31.87706845" lon="-109.22607473">
<ele>1701.3</ele>
<time>2021-03-23T23:12:48Z</time>
<speed>5.6</speed>
</trkpt>
<trkpt lat="31.87709927" lon="-109.22601582">
<ele>1700.6</ele>
<time>2021-03-23T23:12:49Z</time>
<speed>6.2</speed>
</trkpt>
<trkpt lat="31.87713841" lon="-109.22595876">
<ele>1699.9</ele>
<time>2021-03-23T23:12:50Z</time>
<speed>6.8</speed>
</trkpt>
<trkpt lat="31.87717679" lon="-109.22589678">
<ele>1699.4</ele>
<time>2021-03-23T23:12:51Z</time>
<speed>7.3</speed>
</trkpt>
<trkpt lat="31.87721587" lon="-109.22583606">
<ele>1698.7</ele>
<time>2021-03-23T23:12:52Z</time>
<speed>7.4</speed>
</trkpt>
<trkpt lat="31.87725585" lon="-109.22577667">
<ele>1697.9</ele>
<time>2021-03-23T23:12:53Z</time>
<speed>7.4</speed>
</trkpt>
<trkpt lat="31.87729982" lon="-109.22571589">
<ele>1697.3</ele>
<time>2021-03-23T23:12:54Z</time>
<speed>7.6</speed>
</trkpt>
<trkpt lat="31.8773502" lon="-109.2256531">
<ele>1697.2</ele>
<time>2021-03-23T23:12:55Z</time>
<speed>7.8</speed>
</trkpt>
<trkpt lat="31.87739872" lon="-109.22558989">
<ele>1697</ele>
<time>2021-03-23T23:12:56Z</time>
<speed>7.9</speed>
</trkpt>
<trkpt lat="31.87744394" lon="-109.22552961">
<ele>1696.9</ele>
<time>2021-03-23T23:12:57Z</time>
<speed>7.8</speed>
</trkpt>
<trkpt lat="31.87750022" lon="-109.22547103">
<ele>1696.3</ele>
<time>2021-03-23T23:12:58Z</time>
<speed>7.9</speed>
</trkpt>
<trkpt lat="31.87755182" lon="-109.2254108">
<ele>1696.6</ele>
<time>2021-03-23T23:12:59Z</time>
<speed>8</speed>
</trkpt>
<trkpt lat="31.87760123" lon="-109.22534676">
<ele>1696.4</ele>
<time>2021-03-23T23:13:00Z</time>
<speed>7.9</speed>
</trkpt>
<trkpt lat="31.87765456" lon="-109.22528632">
<ele>1695.8</ele>
<time>2021-03-23T23:13:01Z</time>
<speed>8</speed>
</trkpt>
<trkpt lat="31.87771128" lon="-109.22522977">
<ele>1695.5</ele>
<time>2021-03-23T23:13:02Z</time>
<speed>8</speed>
</trkpt>
<trkpt lat="31.87776654" lon="-109.22517331">
<ele>1695</ele>
<time>2021-03-23T23:13:03Z</time>
<speed>8</speed>
</trkpt>
<trkpt lat="31.87781831" lon="-109.22511176">
<ele>1694.7</ele>
<time>2021-03-23T23:13:04Z</time>
<speed>8</speed>
</trkpt>
<trkpt lat="31.87785801" lon="-109.2250401">
<ele>1694.7</ele>
<time>2021-03-23T23:13:05Z</time>
<speed>8.1</speed>
</trkpt>
<trkpt lat="31.87789457" lon="-109.22496149">
<ele>1693.8</ele>
<time>2021-03-23T23:13:06Z</time>
<speed>8.2</speed>
</trkpt>
<trkpt lat="31.87792385" lon="-109.22488765">
<ele>1693.2</ele>
<time>2021-03-23T23:13:07Z</time>
<speed>8.2</speed>
</trkpt>
<trkpt lat="31.87795394" lon="-109.22480682">
<ele>1692.8</ele>
<time>2021-03-23T23:13:08Z</time>
<speed>8.3</speed>
</trkpt>
<trkpt lat="31.87798447" lon="-109.22472771">
<ele>1692.5</ele>
<time>2021-03-23T23:13:09Z</time>
<speed>8.3</speed>
</trkpt>
<trkpt lat="31.87801319" lon="-109.22464904">
<ele>1691.9</ele>
<time>2021-03-23T23:13:10Z</time>
<speed>8.5</speed>
</trkpt>
<trkpt lat="31.87804214" lon="-109.22456239">
<ele>1690.4</ele>
<time>2021-03-23T23:13:11Z</time>
<speed>8.6</speed>
</trkpt>
<trkpt lat="31.87807545" lon="-109.2244802">
<ele>1690.2</ele>
<time>2021-03-23T23:13:12Z</time>
<speed>8.7</speed>
</trkpt>
<trkpt lat="31.87810923" lon="-109.22439532">
<ele>1689.7</ele>
<time>2021-03-23T23:13:13Z</time>
<speed>8.9</speed>
</trkpt>
<trkpt lat="31.87814701" lon="-109.22431239">
<ele>1689.3</ele>
<time>2021-03-23T23:13:14Z</time>
<speed>9.1</speed>
</trkpt>
<trkpt lat="31.87818849" lon="-109.2242337">
<ele>1688.3</ele>
<time>2021-03-23T23:13:15Z</time>
<speed>9.1</speed>
</trkpt>
<trkpt lat="31.87822924" lon="-109.22415064">
<ele>1687.8</ele>
<time>2021-03-23T23:13:16Z</time>
<speed>9.2</speed>
</trkpt>
<trkpt lat="31.87827691" lon="-109.22406781">
<ele>1687.3</ele>
<time>2021-03-23T23:13:17Z</time>
<speed>9.2</speed>
</trkpt>
<trkpt lat="31.87832853" lon="-109.22399152">
<ele>1686.9</ele>
<time>2021-03-23T23:13:18Z</time>
<speed>9.1</speed>
</trkpt>
<trkpt lat="31.87838184" lon="-109.22391943">
<ele>1686.7</ele>
<time>2021-03-23T23:13:19Z</time>
<speed>9</speed>
</trkpt>
<trkpt lat="31.87843543" lon="-109.2238541">
<ele>1686.8</ele>
<time>2021-03-23T23:13:20Z</time>
<speed>8.6</speed>
</trkpt>
<trkpt lat="31.87847813" lon="-109.22378086">
<ele>1685.6</ele>
<time>2021-03-23T23:13:21Z</time>
<speed>8.8</speed>
</trkpt>
<trkpt lat="31.87852526" lon="-109.22370339">
<ele>1685.8</ele>
<time>2021-03-23T23:13:22Z</time>
<speed>8.8</speed>
</trkpt>
<trkpt lat="31.87855476" lon="-109.22363252">
<ele>1685.4</ele>
<time>2021-03-23T23:13:23Z</time>
<speed>7.9</speed>
</trkpt>
<trkpt lat="31.87858816" lon="-109.22355515">
<ele>1685</ele>
<time>2021-03-23T23:13:24Z</time>
<speed>7.9</speed>
</trkpt>
<trkpt lat="31.87861802" lon="-109.22347804">
<ele>1685</ele>
<time>2021-03-23T23:13:25Z</time>
<speed>7.9</speed>
</trkpt>
<trkpt lat="31.87864124" lon="-109.2234019">
<ele>1684.7</ele>
<time>2021-03-23T23:13:26Z</time>
<speed>7.9</speed>
</trkpt>
<trkpt lat="31.87866253" lon="-109.22332475">
<ele>1684.5</ele>
<time>2021-03-23T23:13:27Z</time>
<speed>7.8</speed>
</trkpt>
<trkpt lat="31.87867605" lon="-109.22325235">
<ele>1684.1</ele>
<time>2021-03-23T23:13:28Z</time>
<speed>7.5</speed>
</trkpt>
<trkpt lat="31.87869166" lon="-109.22317366">
<ele>1684.1</ele>
<time>2021-03-23T23:13:29Z</time>
<speed>7.6</speed>
</trkpt>
<trkpt lat="31.87870563" lon="-109.22309699">
<ele>1683.7</ele>
<time>2021-03-23T23:13:30Z</time>
<speed>7.4</speed>
</trkpt>
<trkpt lat="31.8787219" lon="-109.22301822">
<ele>1683.6</ele>
<time>2021-03-23T23:13:31Z</time>
<speed>7.5</speed>
</trkpt>
<trkpt lat="31.87874107" lon="-109.22294596">
<ele>1683.2</ele>
<time>2021-03-23T23:13:32Z</time>
<speed>7.4</speed>
</trkpt>
<trkpt lat="31.87876193" lon="-109.22286575">
<ele>1682.7</ele>
<time>2021-03-23T23:13:33Z</time>
<speed>7.6</speed>
</trkpt>
<trkpt lat="31.87878958" lon="-109.22278829">
<ele>1682.1</ele>
<time>2021-03-23T23:13:34Z</time>
<speed>8</speed>
</trkpt>
<trkpt lat="31.87881842" lon="-109.22271243">
<ele>1681.4</ele>
<time>2021-03-23T23:13:35Z</time>
<speed>8</speed>
</trkpt>
<trkpt lat="31.87884603" lon="-109.22263737">
<ele>1680.7</ele>
<time>2021-03-23T23:13:36Z</time>
<speed>7.9</speed>
</trkpt>
<trkpt lat="31.87887904" lon="-109.22256648">
<ele>1680.5</ele>
<time>2021-03-23T23:13:37Z</time>
<speed>7.8</speed>
</trkpt>
<trkpt lat="31.87891741" lon="-109.22250118">
<ele>1680</ele>
<time>2021-03-23T23:13:38Z</time>
<speed>7.5</speed>
</trkpt>
<trkpt lat="31.8789526" lon="-109.22243168">
<ele>1679.5</ele>
<time>2021-03-23T23:13:39Z</time>
<speed>7.3</speed>
</trkpt>
<trkpt lat="31.87898697" lon="-109.22236269">
<ele>1679.1</ele>
<time>2021-03-23T23:13:40Z</time>
<speed>7.3</speed>
</trkpt>
<trkpt lat="31.87901669" lon="-109.22229092">
<ele>1678.6</ele>
<time>2021-03-23T23:13:41Z</time>
<speed>7.5</speed>
</trkpt>
<trkpt lat="31.87904832" lon="-109.22221791">
<ele>1678.4</ele>
<time>2021-03-23T23:13:42Z</time>
<speed>7.5</speed>
</trkpt>
<trkpt lat="31.87908118" lon="-109.22214554">
<ele>1678.4</ele>
<time>2021-03-23T23:13:43Z</time>
<speed>7.9</speed>
</trkpt>
<trkpt lat="31.87911483" lon="-109.22206747">
<ele>1678.1</ele>
<time>2021-03-23T23:13:44Z</time>
<speed>8.1</speed>
</trkpt>
<trkpt lat="31.87914551" lon="-109.22198916">
<ele>1677.2</ele>
<time>2021-03-23T23:13:45Z</time>
<speed>8.4</speed>
</trkpt>
<trkpt lat="31.87917739" lon="-109.22190681">
<ele>1677</ele>
<time>2021-03-23T23:13:46Z</time>
<speed>8.6</speed>
</trkpt>
<trkpt lat="31.87921257" lon="-109.22182186">
<ele>1676.4</ele>
<time>2021-03-23T23:13:47Z</time>
<speed>8.8</speed>
</trkpt>
<trkpt lat="31.87924425" lon="-109.22173556">
<ele>1675.7</ele>
<time>2021-03-23T23:13:48Z</time>
<speed>8.9</speed>
</trkpt>
<trkpt lat="31.87928176" lon="-109.22165192">
<ele>1675.5</ele>
<time>2021-03-23T23:13:49Z</time>
<speed>8.8</speed>
</trkpt>
<trkpt lat="31.87931852" lon="-109.2215701">
<ele>1674.9</ele>
<time>2021-03-23T23:13:50Z</time>
<speed>8.8</speed>
</trkpt>
<trkpt lat="31.87935734" lon="-109.22148697">
<ele>1674.5</ele>
<time>2021-03-23T23:13:51Z</time>
<speed>8.9</speed>
</trkpt>
<trkpt lat="31.87938961" lon="-109.22140017">
<ele>1673.7</ele>
<time>2021-03-23T23:13:52Z</time>
<speed>8.9</speed>
</trkpt>
<trkpt lat="31.87942829" lon="-109.2213149">
<ele>1673.3</ele>
<time>2021-03-23T23:13:53Z</time>
<speed>9</speed>
</trkpt>
<trkpt lat="31.87946408" lon="-109.22122447">
<ele>1672.9</ele>
<time>2021-03-23T23:13:54Z</time>
<speed>9.1</speed>
</trkpt>
<trkpt lat="31.87950117" lon="-109.22113866">
<ele>1672.3</ele>
<time>2021-03-23T23:13:55Z</time>
<speed>9.3</speed>
</trkpt>
<trkpt lat="31.87953715" lon="-109.22104795">
<ele>1672</ele>
<time>2021-03-23T23:13:56Z</time>
<speed>9.5</speed>
</trkpt>
<trkpt lat="31.87957421" lon="-109.22095743">
<ele>1671.3</ele>
<time>2021-03-23T23:13:57Z</time>
<speed>9.5</speed>
</trkpt>
<trkpt lat="31.87960524" lon="-109.22086508">
<ele>1670.7</ele>
<time>2021-03-23T23:13:58Z</time>
<speed>9.4</speed>
</trkpt>
<trkpt lat="31.87964382" lon="-109.22077464">
<ele>1670.4</ele>
<time>2021-03-23T23:13:59Z</time>
<speed>9.6</speed>
</trkpt>
<trkpt lat="31.87968288" lon="-109.22068225">
<ele>1669.5</ele>
<time>2021-03-23T23:14:00Z</time>
<speed>9.8</speed>
</trkpt>
<trkpt lat="31.87972489" lon="-109.22059246">
<ele>1669</ele>
<time>2021-03-23T23:14:01Z</time>
<speed>9.8</speed>
</trkpt>
<trkpt lat="31.87976951" lon="-109.2205027">
<ele>1668.5</ele>
<time>2021-03-23T23:14:02Z</time>
<speed>9.8</speed>
</trkpt>
<trkpt lat="31.8798162" lon="-109.22041522">
<ele>1667.9</ele>
<time>2021-03-23T23:14:03Z</time>
<speed>9.6</speed>
</trkpt>
<trkpt lat="31.87985858" lon="-109.22032809">
<ele>1667.5</ele>
<time>2021-03-23T23:14:04Z</time>
<speed>9.4</speed>
</trkpt>
<trkpt lat="31.8799185" lon="-109.22024905">
<ele>1666.9</ele>
<time>2021-03-23T23:14:05Z</time>
<speed>9.6</speed>
</trkpt>
<trkpt lat="31.87997587" lon="-109.22016732">
<ele>1666.7</ele>
<time>2021-03-23T23:14:06Z</time>
<speed>9.7</speed>
</trkpt>
<trkpt lat="31.88003283" lon="-109.22008759">
<ele>1666.6</ele>
<time>2021-03-23T23:14:07Z</time>
<speed>9.7</speed>
</trkpt>
<trkpt lat="31.88008753" lon="-109.22000854">
<ele>1666.6</ele>
<time>2021-03-23T23:14:08Z</time>
<speed>9.8</speed>
</trkpt>
<trkpt lat="31.88014947" lon="-109.2199359">
<ele>1666.5</ele>
<time>2021-03-23T23:14:09Z</time>
<speed>9.8</speed>
</trkpt>
<trkpt lat="31.88021452" lon="-109.21986341">
<ele>1666.6</ele>
<time>2021-03-23T23:14:10Z</time>
<speed>9.9</speed>
</trkpt>
<trkpt lat="31.88027861" lon="-109.2197908">
<ele>1666.5</ele>
<time>2021-03-23T23:14:11Z</time>
<speed>9.9</speed>
</trkpt>
<trkpt lat="31.8803448" lon="-109.21971781">
<ele>1666.7</ele>
<time>2021-03-23T23:14:12Z</time>
<speed>10</speed>
</trkpt>
<trkpt lat="31.88040849" lon="-109.21964579">
<ele>1666.4</ele>
<time>2021-03-23T23:14:13Z</time>
<speed>9.8</speed>
</trkpt>
<trkpt lat="31.88047422" lon="-109.21957925">
<ele>1666.1</ele>
<time>2021-03-23T23:14:14Z</time>
<speed>9.7</speed>
</trkpt>
<trkpt lat="31.88054137" lon="-109.21951436">
<ele>1666</ele>
<time>2021-03-23T23:14:15Z</time>
<speed>9.7</speed>
</trkpt>
<trkpt lat="31.88060966" lon="-109.21944882">
<ele>1665.7</ele>
<time>2021-03-23T23:14:16Z</time>
<speed>9.6</speed>
</trkpt>
<trkpt lat="31.88067846" lon="-109.21938275">
<ele>1665.5</ele>
<time>2021-03-23T23:14:17Z</time>
<speed>9.7</speed>
</trkpt>
<trkpt lat="31.88074748" lon="-109.21931894">
<ele>1665.7</ele>
<time>2021-03-23T23:14:18Z</time>
<speed>9.8</speed>
</trkpt>
<trkpt lat="31.88081869" lon="-109.21925792">
<ele>1666.3</ele>
<time>2021-03-23T23:14:19Z</time>
<speed>10</speed>
</trkpt>
<trkpt lat="31.88089877" lon="-109.21919616">
<ele>1666.4</ele>
<time>2021-03-23T23:14:20Z</time>
<speed>10.1</speed>
</trkpt>
<trkpt lat="31.88097574" lon="-109.21913984">
<ele>1666.4</ele>
<time>2021-03-23T23:14:21Z</time>
<speed>10.1</speed>
</trkpt>
<trkpt lat="31.88105165" lon="-109.21908649">
<ele>1665.6</ele>
<time>2021-03-23T23:14:22Z</time>
<speed>9.8</speed>
</trkpt>
<trkpt lat="31.88112735" lon="-109.21903806">
<ele>1665.1</ele>
<time>2021-03-23T23:14:23Z</time>
<speed>9.7</speed>
</trkpt>
<trkpt lat="31.8812054" lon="-109.21898646">
<ele>1664.8</ele>
<time>2021-03-23T23:14:24Z</time>
<speed>9.5</speed>
</trkpt>
<trkpt lat="31.88128199" lon="-109.21894084">
<ele>1664.4</ele>
<time>2021-03-23T23:14:25Z</time>
<speed>9.2</speed>
</trkpt>
<trkpt lat="31.88135022" lon="-109.21889032">
<ele>1663.5</ele>
<time>2021-03-23T23:14:26Z</time>
<speed>8.9</speed>
</trkpt>
<trkpt lat="31.88141604" lon="-109.218827">
<ele>1663.5</ele>
<time>2021-03-23T23:14:27Z</time>
<speed>8.9</speed>
</trkpt>
<trkpt lat="31.88147479" lon="-109.21876871">
<ele>1663</ele>
<time>2021-03-23T23:14:28Z</time>
<speed>8.9</speed>
</trkpt>
<trkpt lat="31.88152522" lon="-109.21869555">
<ele>1662.2</ele>
<time>2021-03-23T23:14:29Z</time>
<speed>8.9</speed>
</trkpt>
<trkpt lat="31.8815716" lon="-109.21861559">
<ele>1661.7</ele>
<time>2021-03-23T23:14:30Z</time>
<speed>9</speed>
</trkpt>
<trkpt lat="31.88161576" lon="-109.21853379">
<ele>1661.1</ele>
<time>2021-03-23T23:14:31Z</time>
<speed>9.2</speed>
</trkpt>
<trkpt lat="31.88165416" lon="-109.21843902">
<ele>1660.6</ele>
<time>2021-03-23T23:14:32Z</time>
<speed>9.6</speed>
</trkpt>
<trkpt lat="31.88168379" lon="-109.21834298">
<ele>1660.3</ele>
<time>2021-03-23T23:14:33Z</time>
<speed>9.8</speed>
</trkpt>
<trkpt lat="31.88171245" lon="-109.21824762">
<ele>1660</ele>
<time>2021-03-23T23:14:34Z</time>
<speed>9.9</speed>
</trkpt>
<trkpt lat="31.88173563" lon="-109.218142">
<ele>1658.9</ele>
<time>2021-03-23T23:14:35Z</time>
<speed>9.9</speed>
</trkpt>
<trkpt lat="31.88175175" lon="-109.21803807">
<ele>1658.4</ele>
<time>2021-03-23T23:14:36Z</time>
<speed>10.2</speed>
</trkpt>
<trkpt lat="31.88176775" lon="-109.21793014">
<ele>1658</ele>
<time>2021-03-23T23:14:37Z</time>
<speed>10.5</speed>
</trkpt>
<trkpt lat="31.88178288" lon="-109.2178159">
<ele>1657.3</ele>
<time>2021-03-23T23:14:38Z</time>
<speed>10.8</speed>
</trkpt>
<trkpt lat="31.88179319" lon="-109.21770186">
<ele>1656.3</ele>
<time>2021-03-23T23:14:39Z</time>
<speed>10.7</speed>
</trkpt>
<trkpt lat="31.88180283" lon="-109.21759117">
<ele>1656</ele>
<time>2021-03-23T23:14:40Z</time>
<speed>10.4</speed>
</trkpt>
<trkpt lat="31.88181232" lon="-109.21748135">
<ele>1655.9</ele>
<time>2021-03-23T23:14:41Z</time>
<speed>10.2</speed>
</trkpt>
<trkpt lat="31.88182073" lon="-109.21737811">
<ele>1655.3</ele>
<time>2021-03-23T23:14:42Z</time>
<speed>9.9</speed>
</trkpt>
<trkpt lat="31.88183493" lon="-109.21727444">
<ele>1654.9</ele>
<time>2021-03-23T23:14:43Z</time>
<speed>9.8</speed>
</trkpt>
<trkpt lat="31.88185537" lon="-109.21717111">
<ele>1654.2</ele>
<time>2021-03-23T23:14:44Z</time>
<speed>9.8</speed>
</trkpt>
<trkpt lat="31.88188439" lon="-109.21707324">
<ele>1653.5</ele>
<time>2021-03-23T23:14:45Z</time>
<speed>9.5</speed>
</trkpt>
<trkpt lat="31.88192487" lon="-109.21698268">
<ele>1653.4</ele>
<time>2021-03-23T23:14:46Z</time>
<speed>9.6</speed>
</trkpt>
<trkpt lat="31.88196696" lon="-109.21689931">
<ele>1652.4</ele>
<time>2021-03-23T23:14:47Z</time>
<speed>9.2</speed>
</trkpt>
<trkpt lat="31.8820153" lon="-109.21682077">
<ele>1652</ele>
<time>2021-03-23T23:14:48Z</time>
<speed>9</speed>
</trkpt>
<trkpt lat="31.88206375" lon="-109.21674266">
<ele>1651.5</ele>
<time>2021-03-23T23:14:49Z</time>
<speed>8.9</speed>
</trkpt>
<trkpt lat="31.88212477" lon="-109.21666443">
<ele>1650.8</ele>
<time>2021-03-23T23:14:50Z</time>
<speed>9.2</speed>
</trkpt>
<trkpt lat="31.88217661" lon="-109.21659537">
<ele>1650.8</ele>
<time>2021-03-23T23:14:51Z</time>
<speed>9.1</speed>
</trkpt>
<trkpt lat="31.88223154" lon="-109.2165288">
<ele>1650.9</ele>
<time>2021-03-23T23:14:52Z</time>
<speed>9</speed>
</trkpt>
<trkpt lat="31.88228247" lon="-109.21645385">
<ele>1651.1</ele>
<time>2021-03-23T23:14:53Z</time>
<speed>8.8</speed>
</trkpt>
<trkpt lat="31.88233728" lon="-109.21638077">
<ele>1650</ele>
<time>2021-03-23T23:14:54Z</time>
<speed>9.2</speed>
</trkpt>
<trkpt lat="31.88238474" lon="-109.21630531">
<ele>1649.8</ele>
<time>2021-03-23T23:14:55Z</time>
<speed>8.9</speed>
</trkpt>
<trkpt lat="31.88242383" lon="-109.21622875">
<ele>1650.6</ele>
<time>2021-03-23T23:14:56Z</time>
<speed>8.4</speed>
</trkpt>
<trkpt lat="31.88246973" lon="-109.21615698">
<ele>1649.4</ele>
<time>2021-03-23T23:14:57Z</time>
<speed>8.7</speed>
</trkpt>
<trkpt lat="31.88251074" lon="-109.2160812">
<ele>1648.9</ele>
<time>2021-03-23T23:14:58Z</time>
<speed>8.6</speed>
</trkpt>
<trkpt lat="31.88254338" lon="-109.21600755">
<ele>1648.1</ele>
<time>2021-03-23T23:14:59Z</time>
<speed>8.4</speed>
</trkpt>
<trkpt lat="31.88257293" lon="-109.21593405">
<ele>1647.1</ele>
<time>2021-03-23T23:15:00Z</time>
<speed>8.1</speed>
</trkpt>
<trkpt lat="31.88260381" lon="-109.21585815">
<ele>1646.7</ele>
<time>2021-03-23T23:15:01Z</time>
<speed>7.8</speed>
</trkpt>
<trkpt lat="31.8826373" lon="-109.2157877">
<ele>1646.9</ele>
<time>2021-03-23T23:15:02Z</time>
<speed>7.7</speed>
</trkpt>
<trkpt lat="31.8826686" lon="-109.21571359">
<ele>1645.9</ele>
<time>2021-03-23T23:15:03Z</time>
<speed>7.8</speed>
</trkpt>
<trkpt lat="31.88270478" lon="-109.21563998">
<ele>1645.5</ele>
<time>2021-03-23T23:15:04Z</time>
<speed>7.9</speed>
</trkpt>
<trkpt lat="31.88274342" lon="-109.21557008">
<ele>1644.9</ele>
<time>2021-03-23T23:15:05Z</time>
<speed>8</speed>
</trkpt>
<trkpt lat="31.88278519" lon="-109.2154943">
<ele>1644.6</ele>
<time>2021-03-23T23:15:06Z</time>
<speed>8.3</speed>
</trkpt>
<trkpt lat="31.88282114" lon="-109.2154153">
<ele>1644.1</ele>
<time>2021-03-23T23:15:07Z</time>
<speed>8.4</speed>
</trkpt>
<trkpt lat="31.88285773" lon="-109.21533332">
<ele>1643.7</ele>
<time>2021-03-23T23:15:08Z</time>
<speed>8.5</speed>
</trkpt>
<trkpt lat="31.88289854" lon="-109.21525762">
<ele>1643.6</ele>
<time>2021-03-23T23:15:09Z</time>
<speed>8.5</speed>
</trkpt>
<trkpt lat="31.88294355" lon="-109.21518871">
<ele>1643.5</ele>
<time>2021-03-23T23:15:10Z</time>
<speed>8.4</speed>
</trkpt>
<trkpt lat="31.88298037" lon="-109.21511241">
<ele>1643.3</ele>
<time>2021-03-23T23:15:11Z</time>
<speed>8.2</speed>
</trkpt>
<trkpt lat="31.88301733" lon="-109.21503473">
<ele>1642.7</ele>
<time>2021-03-23T23:15:12Z</time>
<speed>8.1</speed>
</trkpt>
<trkpt lat="31.88305743" lon="-109.21496759">
<ele>1642.6</ele>
<time>2021-03-23T23:15:13Z</time>
<speed>8.1</speed>
</trkpt>
<trkpt lat="31.88310248" lon="-109.2149009">
<ele>1641.9</ele>
<time>2021-03-23T23:15:14Z</time>
<speed>8.1</speed>
</trkpt>
<trkpt lat="31.88314416" lon="-109.21483167">
<ele>1641.2</ele>
<time>2021-03-23T23:15:15Z</time>
<speed>8.2</speed>
</trkpt>
<trkpt lat="31.88318914" lon="-109.21475738">
<ele>1640.5</ele>
<time>2021-03-23T23:15:16Z</time>
<speed>8.3</speed>
</trkpt>
<trkpt lat="31.88323334" lon="-109.21468884">
<ele>1640.6</ele>
<time>2021-03-23T23:15:17Z</time>
<speed>8.2</speed>
</trkpt>
<trkpt lat="31.88327503" lon="-109.21462386">
<ele>1641.2</ele>
<time>2021-03-23T23:15:18Z</time>
<speed>7.8</speed>
</trkpt>
<trkpt lat="31.88330509" lon="-109.21455176">
<ele>1640.9</ele>
<time>2021-03-23T23:15:19Z</time>
<speed>7.4</speed>
</trkpt>
<trkpt lat="31.88333301" lon="-109.21448108">
<ele>1640.2</ele>
<time>2021-03-23T23:15:20Z</time>
<speed>7.5</speed>
</trkpt>
<trkpt lat="31.88335255" lon="-109.21440389">
<ele>1640.1</ele>
<time>2021-03-23T23:15:21Z</time>
<speed>7.7</speed>
</trkpt>
<trkpt lat="31.88336518" lon="-109.21431253">
<ele>1639.7</ele>
<time>2021-03-23T23:15:22Z</time>
<speed>8.4</speed>
</trkpt>
<trkpt lat="31.88336382" lon="-109.21421535">
<ele>1639.1</ele>
<time>2021-03-23T23:15:23Z</time>
<speed>9</speed>
</trkpt>
<trkpt lat="31.88335521" lon="-109.21411311">
<ele>1638.6</ele>
<time>2021-03-23T23:15:24Z</time>
<speed>9.4</speed>
</trkpt>
<trkpt lat="31.88333676" lon="-109.21401576">
<ele>1638</ele>
<time>2021-03-23T23:15:25Z</time>
<speed>9.5</speed>
</trkpt>
<trkpt lat="31.88331635" lon="-109.213913">
<ele>1637.9</ele>
<time>2021-03-23T23:15:26Z</time>
<speed>9.8</speed>
</trkpt>
<trkpt lat="31.88329774" lon="-109.21380701">
<ele>1637.8</ele>
<time>2021-03-23T23:15:27Z</time>
<speed>9.8</speed>
</trkpt>
<trkpt lat="31.8832843" lon="-109.21370787">
<ele>1637.5</ele>
<time>2021-03-23T23:15:28Z</time>
<speed>9.7</speed>
</trkpt>
<trkpt lat="31.88327383" lon="-109.21360654">
<ele>1637.5</ele>
<time>2021-03-23T23:15:29Z</time>
<speed>9.5</speed>
</trkpt>
<trkpt lat="31.8832631" lon="-109.21350229">
<ele>1637.4</ele>
<time>2021-03-23T23:15:30Z</time>
<speed>9.6</speed>
</trkpt>
<trkpt lat="31.88325884" lon="-109.21339706">
<ele>1637.4</ele>
<time>2021-03-23T23:15:31Z</time>
<speed>9.9</speed>
</trkpt>
<trkpt lat="31.88325699" lon="-109.21329395">
<ele>1636.9</ele>
<time>2021-03-23T23:15:32Z</time>
<speed>9.8</speed>
</trkpt>
<trkpt lat="31.88326191" lon="-109.21319069">
<ele>1636.9</ele>
<time>2021-03-23T23:15:33Z</time>
<speed>9.9</speed>
</trkpt>
<trkpt lat="31.88326803" lon="-109.21308663">
<ele>1637.3</ele>
<time>2021-03-23T23:15:34Z</time>
<speed>9.9</speed>
</trkpt>
<trkpt lat="31.88327328" lon="-109.21298915">
<ele>1637.3</ele>
<time>2021-03-23T23:15:35Z</time>
<speed>9.4</speed>
</trkpt>
<trkpt lat="31.8832804" lon="-109.21289608">
<ele>1637.6</ele>
<time>2021-03-23T23:15:36Z</time>
<speed>9.2</speed>
</trkpt>
<trkpt lat="31.88328929" lon="-109.21279858">
<ele>1637.7</ele>
<time>2021-03-23T23:15:37Z</time>
<speed>8.9</speed>
</trkpt>
<trkpt lat="31.88329697" lon="-109.21270689">
<ele>1637.2</ele>
<time>2021-03-23T23:15:38Z</time>
<speed>8.8</speed>
</trkpt>
<trkpt lat="31.88330716" lon="-109.21261418">
<ele>1636.9</ele>
<time>2021-03-23T23:15:39Z</time>
<speed>8.7</speed>
</trkpt>
<trkpt lat="31.88331873" lon="-109.21252141">
<ele>1636.7</ele>
<time>2021-03-23T23:15:40Z</time>
<speed>8.7</speed>
</trkpt>
<trkpt lat="31.88333511" lon="-109.21243973">
<ele>1637.1</ele>
<time>2021-03-23T23:15:41Z</time>
<speed>8.4</speed>
</trkpt>
<trkpt lat="31.88335332" lon="-109.21234841">
<ele>1636.4</ele>
<time>2021-03-23T23:15:42Z</time>
<speed>8.8</speed>
</trkpt>
<trkpt lat="31.88336833" lon="-109.21227839">
<ele>1636.6</ele>
<time>2021-03-23T23:15:43Z</time>
<speed>7.5</speed>
</trkpt>
<trkpt lat="31.88339238" lon="-109.21220129">
<ele>1636</ele>
<time>2021-03-23T23:15:44Z</time>
<speed>7.5</speed>
</trkpt>
<trkpt lat="31.88342311" lon="-109.21212623">
<ele>1635.4</ele>
<time>2021-03-23T23:15:45Z</time>
<speed>7.8</speed>
</trkpt>
<trkpt lat="31.88345727" lon="-109.21205025">
<ele>1635</ele>
<time>2021-03-23T23:15:46Z</time>
<speed>8.2</speed>
</trkpt>
<trkpt lat="31.88348806" lon="-109.21197145">
<ele>1634.5</ele>
<time>2021-03-23T23:15:47Z</time>
<speed>8.5</speed>
</trkpt>
<trkpt lat="31.88352404" lon="-109.21188884">
<ele>1633.8</ele>
<time>2021-03-23T23:15:48Z</time>
<speed>8.6</speed>
</trkpt>
<trkpt lat="31.88356481" lon="-109.21181647">
<ele>1633.6</ele>
<time>2021-03-23T23:15:49Z</time>
<speed>8.4</speed>
</trkpt>
<trkpt lat="31.88359796" lon="-109.21174066">
<ele>1633.5</ele>
<time>2021-03-23T23:15:50Z</time>
<speed>8.1</speed>
</trkpt>
<trkpt lat="31.88363982" lon="-109.21166852">
<ele>1633.9</ele>
<time>2021-03-23T23:15:51Z</time>
<speed>8.1</speed>
</trkpt>
<trkpt lat="31.88367003" lon="-109.21158885">
<ele>1633.8</ele>
<time>2021-03-23T23:15:52Z</time>
<speed>8</speed>
</trkpt>
<trkpt lat="31.88368886" lon="-109.21150292">
<ele>1633.7</ele>
<time>2021-03-23T23:15:53Z</time>
<speed>8.1</speed>
</trkpt>
<trkpt lat="31.88369887" lon="-109.21141717">
<ele>1633.5</ele>
<time>2021-03-23T23:15:54Z</time>
<speed>8</speed>
</trkpt>
<trkpt lat="31.88369535" lon="-109.21133095">
<ele>1633.8</ele>
<time>2021-03-23T23:15:55Z</time>
<speed>7.9</speed>
</trkpt>
<trkpt lat="31.88367979" lon="-109.2112477">
<ele>1633.8</ele>
<time>2021-03-23T23:15:56Z</time>
<speed>7.9</speed>
</trkpt>
<trkpt lat="31.88365286" lon="-109.21117177">
<ele>1633.5</ele>
<time>2021-03-23T23:15:57Z</time>
<speed>7.8</speed>
</trkpt>
<trkpt lat="31.88362574" lon="-109.2110921">
<ele>1633.7</ele>
<time>2021-03-23T23:15:58Z</time>
<speed>7.9</speed>
</trkpt>
<trkpt lat="31.88359839" lon="-109.21101178">
<ele>1633.5</ele>
<time>2021-03-23T23:15:59Z</time>
<speed>8</speed>
</trkpt>
<trkpt lat="31.88357183" lon="-109.21093432">
<ele>1633.6</ele>
<time>2021-03-23T23:16:00Z</time>
<speed>8.1</speed>
</trkpt>
<trkpt lat="31.88354318" lon="-109.21085104">
<ele>1633</ele>
<time>2021-03-23T23:16:01Z</time>
<speed>8.2</speed>
</trkpt>
<trkpt lat="31.88352383" lon="-109.21076663">
<ele>1632.9</ele>
<time>2021-03-23T23:16:02Z</time>
<speed>8.4</speed>
</trkpt>
<trkpt lat="31.88351111" lon="-109.21067911">
<ele>1632.5</ele>
<time>2021-03-23T23:16:03Z</time>
<speed>8.2</speed>
</trkpt>
<trkpt lat="31.88350901" lon="-109.21059239">
<ele>1632.2</ele>
<time>2021-03-23T23:16:04Z</time>
<speed>8.2</speed>
</trkpt>
<trkpt lat="31.88351634" lon="-109.21050045">
<ele>1632.5</ele>
<time>2021-03-23T23:16:05Z</time>
<speed>8.8</speed>
</trkpt>
<trkpt lat="31.88352656" lon="-109.21040784">
<ele>1632.1</ele>
<time>2021-03-23T23:16:06Z</time>
<speed>8.7</speed>
</trkpt>
<trkpt lat="31.88353859" lon="-109.2103132">
<ele>1631.8</ele>
<time>2021-03-23T23:16:07Z</time>
<speed>9</speed>
</trkpt>
<trkpt lat="31.88355274" lon="-109.21021814">
<ele>1631.3</ele>
<time>2021-03-23T23:16:08Z</time>
<speed>9.1</speed>
</trkpt>
<trkpt lat="31.88356864" lon="-109.21011819">
<ele>1631.2</ele>
<time>2021-03-23T23:16:09Z</time>
<speed>9.4</speed>
</trkpt>
<trkpt lat="31.88358106" lon="-109.21002293">
<ele>1631.1</ele>
<time>2021-03-23T23:16:10Z</time>
<speed>9.3</speed>
</trkpt>
<trkpt lat="31.88359447" lon="-109.20992887">
<ele>1630.8</ele>
<time>2021-03-23T23:16:11Z</time>
<speed>9.1</speed>
</trkpt>
<trkpt lat="31.88360435" lon="-109.20983259">
<ele>1630.4</ele>
<time>2021-03-23T23:16:12Z</time>
<speed>9</speed>
</trkpt>
<trkpt lat="31.88360905" lon="-109.20973823">
<ele>1629.9</ele>
<time>2021-03-23T23:16:13Z</time>
<speed>8.9</speed>
</trkpt>
<trkpt lat="31.88361234" lon="-109.20964403">
<ele>1629.7</ele>
<time>2021-03-23T23:16:14Z</time>
<speed>8.7</speed>
</trkpt>
<trkpt lat="31.8836123" lon="-109.2095526">
<ele>1629.3</ele>
<time>2021-03-23T23:16:15Z</time>
<speed>8.7</speed>
</trkpt>
<trkpt lat="31.88361097" lon="-109.20946073">
<ele>1628.8</ele>
<time>2021-03-23T23:16:16Z</time>
<speed>8.5</speed>
</trkpt>
<trkpt lat="31.88360957" lon="-109.20936855">
<ele>1628.3</ele>
<time>2021-03-23T23:16:17Z</time>
<speed>8.5</speed>
</trkpt>
<trkpt lat="31.88360538" lon="-109.20927834">
<ele>1627.6</ele>
<time>2021-03-23T23:16:18Z</time>
<speed>8.4</speed>
</trkpt>
<trkpt lat="31.88360293" lon="-109.2091888">
<ele>1627.4</ele>
<time>2021-03-23T23:16:19Z</time>
<speed>8.4</speed>
</trkpt>
<trkpt lat="31.88359919" lon="-109.20910561">
<ele>1626.9</ele>
<time>2021-03-23T23:16:20Z</time>
<speed>8.2</speed>
</trkpt>
<trkpt lat="31.88359931" lon="-109.20902058">
<ele>1627.2</ele>
<time>2021-03-23T23:16:21Z</time>
<speed>8.1</speed>
</trkpt>
<trkpt lat="31.88359689" lon="-109.20893525">
<ele>1626.9</ele>
<time>2021-03-23T23:16:22Z</time>
<speed>8.1</speed>
</trkpt>
<trkpt lat="31.88359681" lon="-109.20884998">
<ele>1626.6</ele>
<time>2021-03-23T23:16:23Z</time>
<speed>8.1</speed>
</trkpt>
<trkpt lat="31.8836022" lon="-109.20875954">
<ele>1626.6</ele>
<time>2021-03-23T23:16:24Z</time>
<speed>8.4</speed>
</trkpt>
<trkpt lat="31.88361138" lon="-109.20866907">
<ele>1625.9</ele>
<time>2021-03-23T23:16:25Z</time>
<speed>8.6</speed>
</trkpt>
<trkpt lat="31.88362339" lon="-109.20858117">
<ele>1626.2</ele>
<time>2021-03-23T23:16:26Z</time>
<speed>8.7</speed>
</trkpt>
<trkpt lat="31.88364234" lon="-109.20849298">
<ele>1625.9</ele>
<time>2021-03-23T23:16:27Z</time>
<speed>9</speed>
</trkpt>
<trkpt lat="31.88366761" lon="-109.20840174">
<ele>1625.9</ele>
<time>2021-03-23T23:16:28Z</time>
<speed>9.1</speed>
</trkpt>
<trkpt lat="31.88369549" lon="-109.20830902">
<ele>1624.8</ele>
<time>2021-03-23T23:16:29Z</time>
<speed>9</speed>
</trkpt>
<trkpt lat="31.88372972" lon="-109.20822259">
<ele>1624.7</ele>
<time>2021-03-23T23:16:30Z</time>
<speed>9</speed>
</trkpt>
<trkpt lat="31.88377451" lon="-109.20814298">
<ele>1625.3</ele>
<time>2021-03-23T23:16:31Z</time>
<speed>8.9</speed>
</trkpt>
<trkpt lat="31.88381329" lon="-109.20806295">
<ele>1625.1</ele>
<time>2021-03-23T23:16:32Z</time>
<speed>8.7</speed>
</trkpt>
<trkpt lat="31.88385169" lon="-109.20798978">
<ele>1625.5</ele>
<time>2021-03-23T23:16:33Z</time>
<speed>8.4</speed>
</trkpt>
<trkpt lat="31.8838915" lon="-109.20791219">
<ele>1625.2</ele>
<time>2021-03-23T23:16:34Z</time>
<speed>8.2</speed>
</trkpt>
<trkpt lat="31.88392683" lon="-109.20784103">
<ele>1624.7</ele>
<time>2021-03-23T23:16:35Z</time>
<speed>8.1</speed>
</trkpt>
<trkpt lat="31.88396301" lon="-109.20777048">
<ele>1624.1</ele>
<time>2021-03-23T23:16:36Z</time>
<speed>7.9</speed>
</trkpt>
<trkpt lat="31.88399637" lon="-109.20769243">
<ele>1623.8</ele>
<time>2021-03-23T23:16:37Z</time>
<speed>8.1</speed>
</trkpt>
<trkpt lat="31.88402931" lon="-109.20761777">
<ele>1623.2</ele>
<time>2021-03-23T23:16:38Z</time>
<speed>8.1</speed>
</trkpt>
<trkpt lat="31.88406055" lon="-109.20754126">
<ele>1622.7</ele>
<time>2021-03-23T23:16:39Z</time>
<speed>8</speed>
</trkpt>
<trkpt lat="31.88409693" lon="-109.20746446">
<ele>1622.4</ele>
<time>2021-03-23T23:16:40Z</time>
<speed>8.1</speed>
</trkpt>
<trkpt lat="31.88412707" lon="-109.20738671">
<ele>1621.7</ele>
<time>2021-03-23T23:16:41Z</time>
<speed>8.2</speed>
</trkpt>
<trkpt lat="31.88415548" lon="-109.20730514">
<ele>1621.2</ele>
<time>2021-03-23T23:16:42Z</time>
<speed>8.1</speed>
</trkpt>
<trkpt lat="31.88419026" lon="-109.20723049">
<ele>1621</ele>
<time>2021-03-23T23:16:43Z</time>
<speed>8</speed>
</trkpt>
<trkpt lat="31.88421325" lon="-109.20715039">
<ele>1620</ele>
<time>2021-03-23T23:16:44Z</time>
<speed>7.9</speed>
</trkpt>
<trkpt lat="31.88424145" lon="-109.20707947">
<ele>1619.6</ele>
<time>2021-03-23T23:16:45Z</time>
<speed>7.7</speed>
</trkpt>
<trkpt lat="31.88427502" lon="-109.20701341">
<ele>1619.7</ele>
<time>2021-03-23T23:16:46Z</time>
<speed>7.4</speed>
</trkpt>
<trkpt lat="31.8843022" lon="-109.20694534">
<ele>1619.6</ele>
<time>2021-03-23T23:16:47Z</time>
<speed>7.2</speed>
</trkpt>
<trkpt lat="31.88433039" lon="-109.20688163">
<ele>1619.5</ele>
<time>2021-03-23T23:16:48Z</time>
<speed>6.9</speed>
</trkpt>
<trkpt lat="31.88436043" lon="-109.20681599">
<ele>1619.1</ele>
<time>2021-03-23T23:16:49Z</time>
<speed>6.8</speed>
</trkpt>
<trkpt lat="31.88438922" lon="-109.20675451">
<ele>1618.7</ele>
<time>2021-03-23T23:16:50Z</time>
<speed>6.6</speed>
</trkpt>
<trkpt lat="31.88441418" lon="-109.20669645">
<ele>1618.3</ele>
<time>2021-03-23T23:16:51Z</time>
<speed>6.2</speed>
</trkpt>
<trkpt lat="31.88444116" lon="-109.20663535">
<ele>1617.4</ele>
<time>2021-03-23T23:16:52Z</time>
<speed>6.2</speed>
</trkpt>
<trkpt lat="31.88446641" lon="-109.2065775">
<ele>1617.1</ele>
<time>2021-03-23T23:16:53Z</time>
<speed>6</speed>
</trkpt>
<trkpt lat="31.88448923" lon="-109.20652096">
<ele>1616.6</ele>
<time>2021-03-23T23:16:54Z</time>
<speed>5.8</speed>
</trkpt>
<trkpt lat="31.88450521" lon="-109.20647071">
<ele>1616.4</ele>
<time>2021-03-23T23:16:55Z</time>
<speed>5.1</speed>
</trkpt>
<trkpt lat="31.88452194" lon="-109.20641893">
<ele>1617.2</ele>
<time>2021-03-23T23:16:56Z</time>
<speed>4.5</speed>
</trkpt>
<trkpt lat="31.88454999" lon="-109.2063615">
<ele>1618.6</ele>
<time>2021-03-23T23:16:58Z</time>
<speed>2.5</speed>
</trkpt>
<trkpt lat="31.88458384" lon="-109.20633281">
<ele>1619.6</ele>
<time>2021-03-23T23:17:01Z</time>
<speed>1.6</speed>
</trkpt>
<trkpt lat="31.88463366" lon="-109.20633339">
<ele>1620.4</ele>
<time>2021-03-23T23:17:03Z</time>
<speed>2.8</speed>
</trkpt>
<trkpt lat="31.88469605" lon="-109.20637771">
<ele>1621.7</ele>
<time>2021-03-23T23:17:05Z</time>
<speed>4.3</speed>
</trkpt>
<trkpt lat="31.88472954" lon="-109.20641448">
<ele>1621.6</ele>
<time>2021-03-23T23:17:06Z</time>
<speed>4.8</speed>
</trkpt>
<trkpt lat="31.88476659" lon="-109.20646792">
<ele>1622.3</ele>
<time>2021-03-23T23:17:07Z</time>
<speed>5.1</speed>
</trkpt>
<trkpt lat="31.8848024" lon="-109.20650741">
<ele>1622.3</ele>
<time>2021-03-23T23:17:08Z</time>
<speed>5.1</speed>
</trkpt>
<trkpt lat="31.8848455" lon="-109.20654579">
<ele>1622.5</ele>
<time>2021-03-23T23:17:09Z</time>
<speed>5.6</speed>
</trkpt>
<trkpt lat="31.88489174" lon="-109.20658783">
<ele>1623.2</ele>
<time>2021-03-23T23:17:10Z</time>
<speed>6</speed>
</trkpt>
<trkpt lat="31.88493412" lon="-109.20662955">
<ele>1623.5</ele>
<time>2021-03-23T23:17:11Z</time>
<speed>6.2</speed>
</trkpt>
<trkpt lat="31.88497883" lon="-109.20667264">
<ele>1624</ele>
<time>2021-03-23T23:17:12Z</time>
<speed>6.3</speed>
</trkpt>
<trkpt lat="31.88502193" lon="-109.20671256">
<ele>1624.1</ele>
<time>2021-03-23T23:17:13Z</time>
<speed>6.2</speed>
</trkpt>
<trkpt lat="31.88507458" lon="-109.20675563">
<ele>1624.8</ele>
<time>2021-03-23T23:17:14Z</time>
<speed>6.7</speed>
</trkpt>
<trkpt lat="31.88513094" lon="-109.20679542">
<ele>1625.6</ele>
<time>2021-03-23T23:17:15Z</time>
<speed>6.8</speed>
</trkpt>
<trkpt lat="31.88518299" lon="-109.20683413">
<ele>1625.9</ele>
<time>2021-03-23T23:17:16Z</time>
<speed>7</speed>
</trkpt>
<trkpt lat="31.88523646" lon="-109.20686848">
<ele>1625.8</ele>
<time>2021-03-23T23:17:17Z</time>
<speed>6.9</speed>
</trkpt>
<trkpt lat="31.88528482" lon="-109.2069083">
<ele>1625.9</ele>
<time>2021-03-23T23:17:18Z</time>
<speed>6.6</speed>
</trkpt>
<trkpt lat="31.88533133" lon="-109.20694526">
<ele>1626.1</ele>
<time>2021-03-23T23:17:19Z</time>
<speed>6.2</speed>
</trkpt>
<trkpt lat="31.88538139" lon="-109.2069753">
<ele>1626.1</ele>
<time>2021-03-23T23:17:20Z</time>
<speed>6.3</speed>
</trkpt>
<trkpt lat="31.8854329" lon="-109.20700868">
<ele>1626.2</ele>
<time>2021-03-23T23:17:21Z</time>
<speed>6.5</speed>
</trkpt>
<trkpt lat="31.88548562" lon="-109.20704484">
<ele>1626.3</ele>
<time>2021-03-23T23:17:22Z</time>
<speed>6.7</speed>
</trkpt>
<trkpt lat="31.88553802" lon="-109.20708304">
<ele>1626.5</ele>
<time>2021-03-23T23:17:23Z</time>
<speed>6.8</speed>
</trkpt>
<trkpt lat="31.88559266" lon="-109.20712063">
<ele>1626.7</ele>
<time>2021-03-23T23:17:24Z</time>
<speed>6.8</speed>
</trkpt>
<trkpt lat="31.88564662" lon="-109.20715598">
<ele>1627</ele>
<time>2021-03-23T23:17:25Z</time>
<speed>6.9</speed>
</trkpt>
<trkpt lat="31.88570533" lon="-109.20719377">
<ele>1627.1</ele>
<time>2021-03-23T23:17:26Z</time>
<speed>7.1</speed>
</trkpt>
<trkpt lat="31.88576697" lon="-109.20722516">
<ele>1627</ele>
<time>2021-03-23T23:17:27Z</time>
<speed>7.3</speed>
</trkpt>
<trkpt lat="31.88582383" lon="-109.20725959">
<ele>1627.7</ele>
<time>2021-03-23T23:17:28Z</time>
<speed>7.3</speed>
</trkpt>
<trkpt lat="31.88588621" lon="-109.20729035">
<ele>1627.9</ele>
<time>2021-03-23T23:17:29Z</time>
<speed>7.3</speed>
</trkpt>
<trkpt lat="31.88594796" lon="-109.20732275">
<ele>1628</ele>
<time>2021-03-23T23:17:30Z</time>
<speed>7.5</speed>
</trkpt>
<trkpt lat="31.88601343" lon="-109.20735355">
<ele>1628.3</ele>
<time>2021-03-23T23:17:31Z</time>
<speed>7.4</speed>
</trkpt>
<trkpt lat="31.88607303" lon="-109.20738977">
<ele>1628.5</ele>
<time>2021-03-23T23:17:32Z</time>
<speed>7.5</speed>
</trkpt>
<trkpt lat="31.88613172" lon="-109.20742365">
<ele>1629</ele>
<time>2021-03-23T23:17:33Z</time>
<speed>7.1</speed>
</trkpt>
<trkpt lat="31.8861909" lon="-109.20746495">
<ele>1629</ele>
<time>2021-03-23T23:17:34Z</time>
<speed>7.2</speed>
</trkpt>
<trkpt lat="31.88624753" lon="-109.20750457">
<ele>1629.9</ele>
<time>2021-03-23T23:17:35Z</time>
<speed>7.1</speed>
</trkpt>
<trkpt lat="31.88630298" lon="-109.20754175">
<ele>1630.2</ele>
<time>2021-03-23T23:17:36Z</time>
<speed>7.1</speed>
</trkpt>
<trkpt lat="31.88635169" lon="-109.20758385">
<ele>1630.3</ele>
<time>2021-03-23T23:17:37Z</time>
<speed>6.8</speed>
</trkpt>
<trkpt lat="31.88640996" lon="-109.20763799">
<ele>1631.1</ele>
<time>2021-03-23T23:17:38Z</time>
<speed>7.5</speed>
</trkpt>
<trkpt lat="31.88646158" lon="-109.20768564">
<ele>1631.3</ele>
<time>2021-03-23T23:17:39Z</time>
<speed>7.4</speed>
</trkpt>
<trkpt lat="31.88650947" lon="-109.20773781">
<ele>1631.8</ele>
<time>2021-03-23T23:17:40Z</time>
<speed>7.3</speed>
</trkpt>
<trkpt lat="31.88656462" lon="-109.20778528">
<ele>1632.2</ele>
<time>2021-03-23T23:17:41Z</time>
<speed>7.2</speed>
</trkpt>
<trkpt lat="31.8866074" lon="-109.20782086">
<ele>1630.9</ele>
<time>2021-03-23T23:17:42Z</time>
<speed>7</speed>
</trkpt>
<trkpt lat="31.88665674" lon="-109.2078597">
<ele>1631.1</ele>
<time>2021-03-23T23:17:43Z</time>
<speed>6.8</speed>
</trkpt>
<trkpt lat="31.88670787" lon="-109.20789753">
<ele>1631</ele>
<time>2021-03-23T23:17:44Z</time>
<speed>6.6</speed>
</trkpt>
<trkpt lat="31.88675982" lon="-109.20793684">
<ele>1631.6</ele>
<time>2021-03-23T23:17:45Z</time>
<speed>6.5</speed>
</trkpt>
<trkpt lat="31.8868092" lon="-109.20797212">
<ele>1631.8</ele>
<time>2021-03-23T23:17:46Z</time>
<speed>6.6</speed>
</trkpt>
<trkpt lat="31.88686343" lon="-109.20800822">
<ele>1632.6</ele>
<time>2021-03-23T23:17:47Z</time>
<speed>6.7</speed>
</trkpt>
<trkpt lat="31.88692005" lon="-109.20803688">
<ele>1632.1</ele>
<time>2021-03-23T23:17:48Z</time>
<speed>6.7</speed>
</trkpt>
<trkpt lat="31.88697554" lon="-109.20806847">
<ele>1632.5</ele>
<time>2021-03-23T23:17:49Z</time>
<speed>6.7</speed>
</trkpt>
<trkpt lat="31.88703609" lon="-109.20809619">
<ele>1632.3</ele>
<time>2021-03-23T23:17:50Z</time>
<speed>7</speed>
</trkpt>
<trkpt lat="31.88709569" lon="-109.20811544">
<ele>1632.6</ele>
<time>2021-03-23T23:17:51Z</time>
<speed>6.6</speed>
</trkpt>
<trkpt lat="31.88715754" lon="-109.20813692">
<ele>1632.6</ele>
<time>2021-03-23T23:17:52Z</time>
<speed>7</speed>
</trkpt>
<trkpt lat="31.88721487" lon="-109.2081597">
<ele>1632.7</ele>
<time>2021-03-23T23:17:53Z</time>
<speed>6.9</speed>
</trkpt>
<trkpt lat="31.8872684" lon="-109.20818701">
<ele>1632.9</ele>
<time>2021-03-23T23:17:54Z</time>
<speed>6.7</speed>
</trkpt>
<trkpt lat="31.88732992" lon="-109.20821285">
<ele>1633.3</ele>
<time>2021-03-23T23:17:55Z</time>
<speed>7</speed>
</trkpt>
<trkpt lat="31.88738876" lon="-109.20823359">
<ele>1633.7</ele>
<time>2021-03-23T23:17:56Z</time>
<speed>6.8</speed>
</trkpt>
<trkpt lat="31.88745045" lon="-109.20825807">
<ele>1633.7</ele>
<time>2021-03-23T23:17:57Z</time>
<speed>6.9</speed>
</trkpt>
<trkpt lat="31.88750735" lon="-109.20827454">
<ele>1634.4</ele>
<time>2021-03-23T23:17:58Z</time>
<speed>6.8</speed>
</trkpt>
<trkpt lat="31.88756772" lon="-109.20829852">
<ele>1636.3</ele>
<time>2021-03-23T23:17:59Z</time>
<speed>6.8</speed>
</trkpt>
<trkpt lat="31.88761963" lon="-109.20831056">
<ele>1635.3</ele>
<time>2021-03-23T23:18:00Z</time>
<speed>6.7</speed>
</trkpt>
<trkpt lat="31.8876794" lon="-109.20832233">
<ele>1635.8</ele>
<time>2021-03-23T23:18:01Z</time>
<speed>6.8</speed>
</trkpt>
<trkpt lat="31.88773793" lon="-109.20833491">
<ele>1637.1</ele>
<time>2021-03-23T23:18:02Z</time>
<speed>6.5</speed>
</trkpt>
<trkpt lat="31.88779545" lon="-109.2083512">
<ele>1638.1</ele>
<time>2021-03-23T23:18:03Z</time>
<speed>6.3</speed>
</trkpt>
<trkpt lat="31.88785313" lon="-109.20836951">
<ele>1638.6</ele>
<time>2021-03-23T23:18:04Z</time>
<speed>6.2</speed>
</trkpt>
<trkpt lat="31.887904" lon="-109.20838605">
<ele>1638.9</ele>
<time>2021-03-23T23:18:05Z</time>
<speed>6.1</speed>
</trkpt>
<trkpt lat="31.88795382" lon="-109.20840207">
<ele>1638.2</ele>
<time>2021-03-23T23:18:06Z</time>
<speed>6.2</speed>
</trkpt>
<trkpt lat="31.88800871" lon="-109.20841759">
<ele>1638.3</ele>
<time>2021-03-23T23:18:07Z</time>
<speed>6.2</speed>
</trkpt>
<trkpt lat="31.88806628" lon="-109.20843909">
<ele>1638.2</ele>
<time>2021-03-23T23:18:08Z</time>
<speed>6.5</speed>
</trkpt>
<trkpt lat="31.88812307" lon="-109.20846493">
<ele>1638.1</ele>
<time>2021-03-23T23:18:09Z</time>
<speed>6.7</speed>
</trkpt>
<trkpt lat="31.88817822" lon="-109.20849377">
<ele>1638.6</ele>
<time>2021-03-23T23:18:10Z</time>
<speed>6.8</speed>
</trkpt>
<trkpt lat="31.88823477" lon="-109.20852061">
<ele>1639.4</ele>
<time>2021-03-23T23:18:11Z</time>
<speed>6.9</speed>
</trkpt>
<trkpt lat="31.88829222" lon="-109.20854296">
<ele>1639.7</ele>
<time>2021-03-23T23:18:12Z</time>
<speed>6.6</speed>
</trkpt>
<trkpt lat="31.88835002" lon="-109.2085714">
<ele>1639.1</ele>
<time>2021-03-23T23:18:13Z</time>
<speed>6.5</speed>
</trkpt>
<trkpt lat="31.88840388" lon="-109.20860162">
<ele>1639.6</ele>
<time>2021-03-23T23:18:14Z</time>
<speed>6.6</speed>
</trkpt>
<trkpt lat="31.88846247" lon="-109.20863266">
<ele>1639.5</ele>
<time>2021-03-23T23:18:15Z</time>
<speed>7</speed>
</trkpt>
<trkpt lat="31.88851346" lon="-109.20866884">
<ele>1639.8</ele>
<time>2021-03-23T23:18:16Z</time>
<speed>6.8</speed>
</trkpt>
<trkpt lat="31.88855423" lon="-109.20870159">
<ele>1636.2</ele>
<time>2021-03-23T23:18:17Z</time>
<speed>6.7</speed>
</trkpt>
<trkpt lat="31.88860916" lon="-109.20874271">
<ele>1636.3</ele>
<time>2021-03-23T23:18:18Z</time>
<speed>6.8</speed>
</trkpt>
<trkpt lat="31.88865238" lon="-109.20878665">
<ele>1635.6</ele>
<time>2021-03-23T23:18:19Z</time>
<speed>6.7</speed>
</trkpt>
<trkpt lat="31.88869647" lon="-109.20883269">
<ele>1635</ele>
<time>2021-03-23T23:18:20Z</time>
<speed>6.3</speed>
</trkpt>
<trkpt lat="31.88873352" lon="-109.20888086">
<ele>1634.7</ele>
<time>2021-03-23T23:18:21Z</time>
<speed>6.1</speed>
</trkpt>
<trkpt lat="31.8887701" lon="-109.20893655">
<ele>1635</ele>
<time>2021-03-23T23:18:22Z</time>
<speed>6.6</speed>
</trkpt>
<trkpt lat="31.88880781" lon="-109.20899475">
<ele>1636.1</ele>
<time>2021-03-23T23:18:23Z</time>
<speed>7</speed>
</trkpt>
<trkpt lat="31.88883831" lon="-109.209054">
<ele>1636.5</ele>
<time>2021-03-23T23:18:24Z</time>
<speed>6.5</speed>
</trkpt>
<trkpt lat="31.88886696" lon="-109.20911222">
<ele>1637.2</ele>
<time>2021-03-23T23:18:25Z</time>
<speed>6.3</speed>
</trkpt>
<trkpt lat="31.8888943" lon="-109.2091675">
<ele>1637.5</ele>
<time>2021-03-23T23:18:26Z</time>
<speed>6</speed>
</trkpt>
<trkpt lat="31.88892041" lon="-109.2092217">
<ele>1637.6</ele>
<time>2021-03-23T23:18:27Z</time>
<speed>5.8</speed>
</trkpt>
<trkpt lat="31.88894836" lon="-109.20926416">
<ele>1636.2</ele>
<time>2021-03-23T23:18:28Z</time>
<speed>5.7</speed>
</trkpt>
<trkpt lat="31.88897731" lon="-109.20931878">
<ele>1636.5</ele>
<time>2021-03-23T23:18:29Z</time>
<speed>5.8</speed>
</trkpt>
<trkpt lat="31.88901035" lon="-109.20937652">
<ele>1636.5</ele>
<time>2021-03-23T23:18:30Z</time>
<speed>6.2</speed>
</trkpt>
<trkpt lat="31.88904258" lon="-109.20942475">
<ele>1636.2</ele>
<time>2021-03-23T23:18:31Z</time>
<speed>5.8</speed>
</trkpt>
<trkpt lat="31.8890853" lon="-109.20947621">
<ele>1635.8</ele>
<time>2021-03-23T23:18:32Z</time>
<speed>6.2</speed>
</trkpt>
<trkpt lat="31.88912891" lon="-109.20952684">
<ele>1636</ele>
<time>2021-03-23T23:18:33Z</time>
<speed>6.6</speed>
</trkpt>
<trkpt lat="31.88917299" lon="-109.2095804">
<ele>1636.4</ele>
<time>2021-03-23T23:18:34Z</time>
<speed>6.8</speed>
</trkpt>
<trkpt lat="31.88921572" lon="-109.20963816">
<ele>1636.7</ele>
<time>2021-03-23T23:18:35Z</time>
<speed>7</speed>
</trkpt>
<trkpt lat="31.88926297" lon="-109.2096889">
<ele>1637.1</ele>
<time>2021-03-23T23:18:36Z</time>
<speed>7</speed>
</trkpt>
<trkpt lat="31.88931186" lon="-109.20973815">
<ele>1637.9</ele>
<time>2021-03-23T23:18:37Z</time>
<speed>6.9</speed>
</trkpt>
<trkpt lat="31.88936046" lon="-109.20978481">
<ele>1639.1</ele>
<time>2021-03-23T23:18:38Z</time>
<speed>7.1</speed>
</trkpt>
<trkpt lat="31.88940729" lon="-109.20983083">
<ele>1639.8</ele>
<time>2021-03-23T23:18:39Z</time>
<speed>6.8</speed>
</trkpt>
<trkpt lat="31.88945937" lon="-109.2098841">
<ele>1641.4</ele>
<time>2021-03-23T23:18:40Z</time>
<speed>6.9</speed>
</trkpt>
<trkpt lat="31.88950567" lon="-109.20992395">
<ele>1641.5</ele>
<time>2021-03-23T23:18:41Z</time>
<speed>6.7</speed>
</trkpt>
<trkpt lat="31.88955682" lon="-109.2099537">
<ele>1642.6</ele>
<time>2021-03-23T23:18:42Z</time>
<speed>6.4</speed>
</trkpt>
<trkpt lat="31.88961006" lon="-109.20998107">
<ele>1643.3</ele>
<time>2021-03-23T23:18:43Z</time>
<speed>6.6</speed>
</trkpt>
<trkpt lat="31.88966996" lon="-109.20999701">
<ele>1643.2</ele>
<time>2021-03-23T23:18:44Z</time>
<speed>6.8</speed>
</trkpt>
<trkpt lat="31.88973093" lon="-109.21001391">
<ele>1644.2</ele>
<time>2021-03-23T23:18:45Z</time>
<speed>6.9</speed>
</trkpt>
<trkpt lat="31.88979517" lon="-109.21001682">
<ele>1644.2</ele>
<time>2021-03-23T23:18:46Z</time>
<speed>7</speed>
</trkpt>
<trkpt lat="31.8898621" lon="-109.21001436">
<ele>1646.8</ele>
<time>2021-03-23T23:18:47Z</time>
<speed>7.3</speed>
</trkpt>
<trkpt lat="31.88992577" lon="-109.21000012">
<ele>1647.6</ele>
<time>2021-03-23T23:18:48Z</time>
<speed>7.2</speed>
</trkpt>
<trkpt lat="31.88999046" lon="-109.2099763">
<ele>1647.7</ele>
<time>2021-03-23T23:18:49Z</time>
<speed>7.4</speed>
</trkpt>
<trkpt lat="31.89005507" lon="-109.20994874">
<ele>1647.4</ele>
<time>2021-03-23T23:18:50Z</time>
<speed>7.5</speed>
</trkpt>
<trkpt lat="31.89012143" lon="-109.20991775">
<ele>1647</ele>
<time>2021-03-23T23:18:51Z</time>
<speed>7.9</speed>
</trkpt>
<trkpt lat="31.89019318" lon="-109.20988701">
<ele>1648.2</ele>
<time>2021-03-23T23:18:52Z</time>
<speed>8</speed>
</trkpt>
<trkpt lat="31.89025946" lon="-109.20986279">
<ele>1648</ele>
<time>2021-03-23T23:18:53Z</time>
<speed>7.9</speed>
</trkpt>
<trkpt lat="31.89032983" lon="-109.20984039">
<ele>1648.5</ele>
<time>2021-03-23T23:18:54Z</time>
<speed>8.1</speed>
</trkpt>
<trkpt lat="31.890399" lon="-109.20982146">
<ele>1648.7</ele>
<time>2021-03-23T23:18:55Z</time>
<speed>7.8</speed>
</trkpt>
<trkpt lat="31.89047149" lon="-109.20981039">
<ele>1649.1</ele>
<time>2021-03-23T23:18:56Z</time>
<speed>8.1</speed>
</trkpt>
<trkpt lat="31.89054635" lon="-109.20980611">
<ele>1649.4</ele>
<time>2021-03-23T23:18:57Z</time>
<speed>8.2</speed>
</trkpt>
<trkpt lat="31.89062158" lon="-109.20980643">
<ele>1649.6</ele>
<time>2021-03-23T23:18:58Z</time>
<speed>8.3</speed>
</trkpt>
<trkpt lat="31.89069531" lon="-109.20981245">
<ele>1649.7</ele>
<time>2021-03-23T23:18:59Z</time>
<speed>8.4</speed>
</trkpt>
<trkpt lat="31.89076906" lon="-109.20982156">
<ele>1650</ele>
<time>2021-03-23T23:19:00Z</time>
<speed>8.4</speed>
</trkpt>
<trkpt lat="31.89083885" lon="-109.20984005">
<ele>1649.4</ele>
<time>2021-03-23T23:19:01Z</time>
<speed>8</speed>
</trkpt>
<trkpt lat="31.89090488" lon="-109.20987061">
<ele>1649.2</ele>
<time>2021-03-23T23:19:02Z</time>
<speed>7.8</speed>
</trkpt>
<trkpt lat="31.89096523" lon="-109.20992331">
<ele>1649.1</ele>
<time>2021-03-23T23:19:03Z</time>
<speed>8</speed>
</trkpt>
<trkpt lat="31.89102508" lon="-109.20999074">
<ele>1648.4</ele>
<time>2021-03-23T23:19:04Z</time>
<speed>8.5</speed>
</trkpt>
<trkpt lat="31.89107038" lon="-109.21007326">
<ele>1648.5</ele>
<time>2021-03-23T23:19:05Z</time>
<speed>9.3</speed>
</trkpt>
<trkpt lat="31.89111429" lon="-109.21016278">
<ele>1649.3</ele>
<time>2021-03-23T23:19:06Z</time>
<speed>9.8</speed>
</trkpt>
<trkpt lat="31.89115214" lon="-109.21025939">
<ele>1649.5</ele>
<time>2021-03-23T23:19:07Z</time>
<speed>9.9</speed>
</trkpt>
<trkpt lat="31.89118631" lon="-109.21035856">
<ele>1650.1</ele>
<time>2021-03-23T23:19:08Z</time>
<speed>9.9</speed>
</trkpt>
<trkpt lat="31.89121676" lon="-109.21045897">
<ele>1650.7</ele>
<time>2021-03-23T23:19:09Z</time>
<speed>9.9</speed>
</trkpt>
<trkpt lat="31.89125089" lon="-109.21055467">
<ele>1650.3</ele>
<time>2021-03-23T23:19:10Z</time>
<speed>10.1</speed>
</trkpt>
<trkpt lat="31.8912931" lon="-109.21064986">
<ele>1650.1</ele>
<time>2021-03-23T23:19:11Z</time>
<speed>10.2</speed>
</trkpt>
<trkpt lat="31.89134378" lon="-109.21074007">
<ele>1650.4</ele>
<time>2021-03-23T23:19:12Z</time>
<speed>10.2</speed>
</trkpt>
<trkpt lat="31.89138992" lon="-109.21083571">
<ele>1651.8</ele>
<time>2021-03-23T23:19:13Z</time>
<speed>10.4</speed>
</trkpt>
<trkpt lat="31.89143951" lon="-109.21093203">
<ele>1651.9</ele>
<time>2021-03-23T23:19:14Z</time>
<speed>10.7</speed>
</trkpt>
<trkpt lat="31.89148244" lon="-109.21102966">
<ele>1652.8</ele>
<time>2021-03-23T23:19:15Z</time>
<speed>10.6</speed>
</trkpt>
<trkpt lat="31.89153312" lon="-109.21113338">
<ele>1652.2</ele>
<time>2021-03-23T23:19:16Z</time>
<speed>11.2</speed>
</trkpt>
<trkpt lat="31.89158083" lon="-109.21124065">
<ele>1652.5</ele>
<time>2021-03-23T23:19:17Z</time>
<speed>11.6</speed>
</trkpt>
<trkpt lat="31.89162595" lon="-109.21135049">
<ele>1654</ele>
<time>2021-03-23T23:19:18Z</time>
<speed>11.8</speed>
</trkpt>
<trkpt lat="31.89167759" lon="-109.21145958">
<ele>1654.6</ele>
<time>2021-03-23T23:19:19Z</time>
<speed>11.7</speed>
</trkpt>
<trkpt lat="31.89172529" lon="-109.21156883">
<ele>1655.3</ele>
<time>2021-03-23T23:19:20Z</time>
<speed>11.4</speed>
</trkpt>
<trkpt lat="31.89177598" lon="-109.211674">
<ele>1656.3</ele>
<time>2021-03-23T23:19:21Z</time>
<speed>11.3</speed>
</trkpt>
<trkpt lat="31.89182238" lon="-109.21178244">
<ele>1656.9</ele>
<time>2021-03-23T23:19:22Z</time>
<speed>11.5</speed>
</trkpt>
<trkpt lat="31.89187417" lon="-109.21188567">
<ele>1656.3</ele>
<time>2021-03-23T23:19:23Z</time>
<speed>11.3</speed>
</trkpt>
<trkpt lat="31.89193013" lon="-109.21198792">
<ele>1656</ele>
<time>2021-03-23T23:19:24Z</time>
<speed>11.4</speed>
</trkpt>
<trkpt lat="31.89199051" lon="-109.21208318">
<ele>1656.4</ele>
<time>2021-03-23T23:19:25Z</time>
<speed>11.2</speed>
</trkpt>
<trkpt lat="31.89205983" lon="-109.21217032">
<ele>1657.3</ele>
<time>2021-03-23T23:19:26Z</time>
<speed>11.2</speed>
</trkpt>
<trkpt lat="31.89213175" lon="-109.2122601">
<ele>1658</ele>
<time>2021-03-23T23:19:27Z</time>
<speed>11.4</speed>
</trkpt>
<trkpt lat="31.89220643" lon="-109.21234467">
<ele>1659.4</ele>
<time>2021-03-23T23:19:28Z</time>
<speed>11.2</speed>
</trkpt>
<trkpt lat="31.89228678" lon="-109.21242231">
<ele>1659.8</ele>
<time>2021-03-23T23:19:29Z</time>
<speed>11.2</speed>
</trkpt>
<trkpt lat="31.89236435" lon="-109.21250277">
<ele>1660.8</ele>
<time>2021-03-23T23:19:30Z</time>
<speed>11.4</speed>
</trkpt>
<trkpt lat="31.89244405" lon="-109.2125922">
<ele>1662</ele>
<time>2021-03-23T23:19:31Z</time>
<speed>11.9</speed>
</trkpt>
<trkpt lat="31.8925192" lon="-109.21267927">
<ele>1662.3</ele>
<time>2021-03-23T23:19:32Z</time>
<speed>11.7</speed>
</trkpt>
<trkpt lat="31.89258993" lon="-109.21276758">
<ele>1662.8</ele>
<time>2021-03-23T23:19:33Z</time>
<speed>11.6</speed>
</trkpt>
<trkpt lat="31.89266142" lon="-109.21286234">
<ele>1663</ele>
<time>2021-03-23T23:19:34Z</time>
<speed>11.7</speed>
</trkpt>
<trkpt lat="31.89272779" lon="-109.21295343">
<ele>1663.1</ele>
<time>2021-03-23T23:19:35Z</time>
<speed>11.7</speed>
</trkpt>
<trkpt lat="31.89279304" lon="-109.21304679">
<ele>1663.8</ele>
<time>2021-03-23T23:19:36Z</time>
<speed>11.6</speed>
</trkpt>
<trkpt lat="31.89285828" lon="-109.21314095">
<ele>1664.1</ele>
<time>2021-03-23T23:19:37Z</time>
<speed>11.4</speed>
</trkpt>
<trkpt lat="31.89292608" lon="-109.21323937">
<ele>1664.5</ele>
<time>2021-03-23T23:19:38Z</time>
<speed>11.6</speed>
</trkpt>
<trkpt lat="31.89299056" lon="-109.21333091">
<ele>1665.4</ele>
<time>2021-03-23T23:19:39Z</time>
<speed>11.3</speed>
</trkpt>
<trkpt lat="31.89305214" lon="-109.21341944">
<ele>1665.9</ele>
<time>2021-03-23T23:19:40Z</time>
<speed>10.7</speed>
</trkpt>
<trkpt lat="31.89311505" lon="-109.21350365">
<ele>1666.9</ele>
<time>2021-03-23T23:19:41Z</time>
<speed>10.6</speed>
</trkpt>
<trkpt lat="31.8931744" lon="-109.21358625">
<ele>1667.6</ele>
<time>2021-03-23T23:19:42Z</time>
<speed>10.2</speed>
</trkpt>
<trkpt lat="31.89323988" lon="-109.21367071">
<ele>1668.9</ele>
<time>2021-03-23T23:19:43Z</time>
<speed>9.7</speed>
</trkpt>
<trkpt lat="31.89329079" lon="-109.21373977">
<ele>1668.9</ele>
<time>2021-03-23T23:19:44Z</time>
<speed>8.8</speed>
</trkpt>
<trkpt lat="31.89333428" lon="-109.21381032">
<ele>1669.3</ele>
<time>2021-03-23T23:19:45Z</time>
<speed>8.4</speed>
</trkpt>
<trkpt lat="31.89337084" lon="-109.21389123">
<ele>1670.2</ele>
<time>2021-03-23T23:19:46Z</time>
<speed>8.3</speed>
</trkpt>
<trkpt lat="31.89339998" lon="-109.21397977">
<ele>1670.9</ele>
<time>2021-03-23T23:19:47Z</time>
<speed>8.4</speed>
</trkpt>
<trkpt lat="31.89342666" lon="-109.21407602">
<ele>1671.3</ele>
<time>2021-03-23T23:19:48Z</time>
<speed>8.8</speed>
</trkpt>
<trkpt lat="31.89344468" lon="-109.21416559">
<ele>1672</ele>
<time>2021-03-23T23:19:49Z</time>
<speed>8.6</speed>
</trkpt>
<trkpt lat="31.89346169" lon="-109.21424755">
<ele>1671.3</ele>
<time>2021-03-23T23:19:50Z</time>
<speed>8.1</speed>
</trkpt>
<trkpt lat="31.8934794" lon="-109.21432816">
<ele>1671.7</ele>
<time>2021-03-23T23:19:51Z</time>
<speed>7.8</speed>
</trkpt>
<trkpt lat="31.89349212" lon="-109.2144117">
<ele>1672.2</ele>
<time>2021-03-23T23:19:52Z</time>
<speed>7.9</speed>
</trkpt>
<trkpt lat="31.89351717" lon="-109.21449137">
<ele>1672.8</ele>
<time>2021-03-23T23:19:53Z</time>
<speed>7.8</speed>
</trkpt>
<trkpt lat="31.89354111" lon="-109.21456945">
<ele>1673.6</ele>
<time>2021-03-23T23:19:54Z</time>
<speed>7.9</speed>
</trkpt>
<trkpt lat="31.8935687" lon="-109.21465874">
<ele>1675.1</ele>
<time>2021-03-23T23:19:55Z</time>
<speed>8.3</speed>
</trkpt>
<trkpt lat="31.89359696" lon="-109.2147468">
<ele>1676.9</ele>
<time>2021-03-23T23:19:56Z</time>
<speed>8.6</speed>
</trkpt>
<trkpt lat="31.89362659" lon="-109.21483787">
<ele>1677.5</ele>
<time>2021-03-23T23:19:57Z</time>
<speed>9</speed>
</trkpt>
<trkpt lat="31.89365916" lon="-109.21493305">
<ele>1677.9</ele>
<time>2021-03-23T23:19:58Z</time>
<speed>9.5</speed>
</trkpt>
<trkpt lat="31.89369161" lon="-109.21503065">
<ele>1678.3</ele>
<time>2021-03-23T23:19:59Z</time>
<speed>9.8</speed>
</trkpt>
<trkpt lat="31.89372716" lon="-109.21513006">
<ele>1679.2</ele>
<time>2021-03-23T23:20:00Z</time>
<speed>10</speed>
</trkpt>
<trkpt lat="31.89377058" lon="-109.21521804">
<ele>1680.1</ele>
<time>2021-03-23T23:20:01Z</time>
<speed>9.6</speed>
</trkpt>
<trkpt lat="31.89381076" lon="-109.21530426">
<ele>1680.5</ele>
<time>2021-03-23T23:20:02Z</time>
<speed>9.2</speed>
</trkpt>
<trkpt lat="31.89385418" lon="-109.21538106">
<ele>1681.1</ele>
<time>2021-03-23T23:20:03Z</time>
<speed>8.8</speed>
</trkpt>
<trkpt lat="31.89390315" lon="-109.21545567">
<ele>1681.4</ele>
<time>2021-03-23T23:20:04Z</time>
<speed>8.8</speed>
</trkpt>
<trkpt lat="31.89395592" lon="-109.21553268">
<ele>1681.5</ele>
<time>2021-03-23T23:20:05Z</time>
<speed>9.2</speed>
</trkpt>
<trkpt lat="31.89401032" lon="-109.21560735">
<ele>1681.5</ele>
<time>2021-03-23T23:20:06Z</time>
<speed>9.4</speed>
</trkpt>
<trkpt lat="31.89406887" lon="-109.2156791">
<ele>1681.9</ele>
<time>2021-03-23T23:20:07Z</time>
<speed>9.8</speed>
</trkpt>
<trkpt lat="31.89413096" lon="-109.21575903">
<ele>1681.6</ele>
<time>2021-03-23T23:20:08Z</time>
<speed>10.3</speed>
</trkpt>
<trkpt lat="31.89419925" lon="-109.21584356">
<ele>1681.4</ele>
<time>2021-03-23T23:20:09Z</time>
<speed>11</speed>
</trkpt>
<trkpt lat="31.89427553" lon="-109.21592981">
<ele>1681.6</ele>
<time>2021-03-23T23:20:10Z</time>
<speed>11.4</speed>
</trkpt>
<trkpt lat="31.89434823" lon="-109.21601484">
<ele>1681.9</ele>
<time>2021-03-23T23:20:11Z</time>
<speed>11.4</speed>
</trkpt>
<trkpt lat="31.89442387" lon="-109.21610042">
<ele>1682.7</ele>
<time>2021-03-23T23:20:12Z</time>
<speed>11.7</speed>
</trkpt>
<trkpt lat="31.89450199" lon="-109.21617489">
<ele>1682.6</ele>
<time>2021-03-23T23:20:13Z</time>
<speed>11.3</speed>
</trkpt>
<trkpt lat="31.89457648" lon="-109.21624383">
<ele>1682.6</ele>
<time>2021-03-23T23:20:14Z</time>
<speed>10.6</speed>
</trkpt>
<trkpt lat="31.89465131" lon="-109.21629775">
<ele>1683.3</ele>
<time>2021-03-23T23:20:15Z</time>
<speed>10.2</speed>
</trkpt>
<trkpt lat="31.89473632" lon="-109.2163392">
<ele>1683.9</ele>
<time>2021-03-23T23:20:16Z</time>
<speed>9.6</speed>
</trkpt>
<trkpt lat="31.89482328" lon="-109.21636462">
<ele>1684.8</ele>
<time>2021-03-23T23:20:17Z</time>
<speed>9.8</speed>
</trkpt>
<trkpt lat="31.89490886" lon="-109.21637362">
<ele>1685.4</ele>
<time>2021-03-23T23:20:18Z</time>
<speed>9.9</speed>
</trkpt>
<trkpt lat="31.89499792" lon="-109.21637641">
<ele>1685.9</ele>
<time>2021-03-23T23:20:19Z</time>
<speed>9.8</speed>
</trkpt>
<trkpt lat="31.8950861" lon="-109.21637257">
<ele>1686.1</ele>
<time>2021-03-23T23:20:20Z</time>
<speed>9.8</speed>
</trkpt>
<trkpt lat="31.89517601" lon="-109.21635942">
<ele>1687.1</ele>
<time>2021-03-23T23:20:21Z</time>
<speed>10.1</speed>
</trkpt>
<trkpt lat="31.89526933" lon="-109.21634513">
<ele>1687.5</ele>
<time>2021-03-23T23:20:22Z</time>
<speed>10.1</speed>
</trkpt>
<trkpt lat="31.89535617" lon="-109.21632969">
<ele>1687.9</ele>
<time>2021-03-23T23:20:23Z</time>
<speed>9.6</speed>
</trkpt>
<trkpt lat="31.8954382" lon="-109.21631395">
<ele>1688.4</ele>
<time>2021-03-23T23:20:24Z</time>
<speed>9</speed>
</trkpt>
<trkpt lat="31.89551122" lon="-109.21630375">
<ele>1689.1</ele>
<time>2021-03-23T23:20:25Z</time>
<speed>8.3</speed>
</trkpt>
<trkpt lat="31.89558377" lon="-109.21629586">
<ele>1689</ele>
<time>2021-03-23T23:20:26Z</time>
<speed>8.2</speed>
</trkpt>
<trkpt lat="31.89566253" lon="-109.21628615">
<ele>1689.3</ele>
<time>2021-03-23T23:20:27Z</time>
<speed>8.8</speed>
</trkpt>
<trkpt lat="31.89574759" lon="-109.21628203">
<ele>1689.6</ele>
<time>2021-03-23T23:20:28Z</time>
<speed>9.5</speed>
</trkpt>
<trkpt lat="31.89583779" lon="-109.21628532">
<ele>1690.2</ele>
<time>2021-03-23T23:20:29Z</time>
<speed>9.8</speed>
</trkpt>
<trkpt lat="31.89592527" lon="-109.21629495">
<ele>1691.1</ele>
<time>2021-03-23T23:20:30Z</time>
<speed>9.8</speed>
</trkpt>
<trkpt lat="31.89600626" lon="-109.21630699">
<ele>1692</ele>
<time>2021-03-23T23:20:31Z</time>
<speed>9.3</speed>
</trkpt>
<trkpt lat="31.89608192" lon="-109.21632434">
<ele>1692.5</ele>
<time>2021-03-23T23:20:32Z</time>
<speed>8.6</speed>
</trkpt>
<trkpt lat="31.89615623" lon="-109.21633887">
<ele>1693.1</ele>
<time>2021-03-23T23:20:33Z</time>
<speed>8.3</speed>
</trkpt>
<trkpt lat="31.89622444" lon="-109.21635391">
<ele>1693</ele>
<time>2021-03-23T23:20:34Z</time>
<speed>7.5</speed>
</trkpt>
<trkpt lat="31.89629248" lon="-109.21636449">
<ele>1692.6</ele>
<time>2021-03-23T23:20:35Z</time>
<speed>7.6</speed>
</trkpt>
<trkpt lat="31.89636241" lon="-109.21637689">
<ele>1693.1</ele>
<time>2021-03-23T23:20:36Z</time>
<speed>7.6</speed>
</trkpt>
<trkpt lat="31.89643238" lon="-109.21639226">
<ele>1692.9</ele>
<time>2021-03-23T23:20:37Z</time>
<speed>7.7</speed>
</trkpt>
<trkpt lat="31.89650423" lon="-109.21640504">
<ele>1693.5</ele>
<time>2021-03-23T23:20:38Z</time>
<speed>7.8</speed>
</trkpt>
<trkpt lat="31.89657541" lon="-109.2164195">
<ele>1694.2</ele>
<time>2021-03-23T23:20:39Z</time>
<speed>7.9</speed>
</trkpt>
<trkpt lat="31.89664438" lon="-109.2164347">
<ele>1694</ele>
<time>2021-03-23T23:20:40Z</time>
<speed>7.7</speed>
</trkpt>
<trkpt lat="31.89670802" lon="-109.21645523">
<ele>1694.1</ele>
<time>2021-03-23T23:20:41Z</time>
<speed>7.7</speed>
</trkpt>
<trkpt lat="31.89677243" lon="-109.21649242">
<ele>1694.8</ele>
<time>2021-03-23T23:20:42Z</time>
<speed>7.8</speed>
</trkpt>
<trkpt lat="31.8968397" lon="-109.21652181">
<ele>1695</ele>
<time>2021-03-23T23:20:43Z</time>
<speed>7.8</speed>
</trkpt>
<trkpt lat="31.89690012" lon="-109.2165592">
<ele>1695.4</ele>
<time>2021-03-23T23:20:44Z</time>
<speed>7.9</speed>
</trkpt>
<trkpt lat="31.89696025" lon="-109.21659819">
<ele>1695.3</ele>
<time>2021-03-23T23:20:45Z</time>
<speed>7.7</speed>
</trkpt>
<trkpt lat="31.89701403" lon="-109.21665324">
<ele>1695.8</ele>
<time>2021-03-23T23:20:46Z</time>
<speed>7.5</speed>
</trkpt>
<trkpt lat="31.89707028" lon="-109.21671179">
<ele>1696.5</ele>
<time>2021-03-23T23:20:47Z</time>
<speed>7.9</speed>
</trkpt>
<trkpt lat="31.89712266" lon="-109.2167696">
<ele>1697</ele>
<time>2021-03-23T23:20:48Z</time>
<speed>8</speed>
</trkpt>
<trkpt lat="31.89716606" lon="-109.21683785">
<ele>1697.6</ele>
<time>2021-03-23T23:20:49Z</time>
<speed>7.9</speed>
</trkpt>
<trkpt lat="31.89719519" lon="-109.21691676">
<ele>1698</ele>
<time>2021-03-23T23:20:50Z</time>
<speed>8</speed>
</trkpt>
<trkpt lat="31.89720886" lon="-109.21699746">
<ele>1698.5</ele>
<time>2021-03-23T23:20:51Z</time>
<speed>7.9</speed>
</trkpt>
<trkpt lat="31.89720834" lon="-109.21708033">
<ele>1699.4</ele>
<time>2021-03-23T23:20:52Z</time>
<speed>7.8</speed>
</trkpt>
<trkpt lat="31.89719729" lon="-109.21716124">
<ele>1700.2</ele>
<time>2021-03-23T23:20:53Z</time>
<speed>7.6</speed>
</trkpt>
<trkpt lat="31.89717645" lon="-109.21724059">
<ele>1700.3</ele>
<time>2021-03-23T23:20:54Z</time>
<speed>7.6</speed>
</trkpt>
<trkpt lat="31.89715922" lon="-109.21732012">
<ele>1700.4</ele>
<time>2021-03-23T23:20:55Z</time>
<speed>7.7</speed>
</trkpt>
<trkpt lat="31.89714427" lon="-109.21739277">
<ele>1700.6</ele>
<time>2021-03-23T23:20:56Z</time>
<speed>7.3</speed>
</trkpt>
<trkpt lat="31.89713131" lon="-109.21747741">
<ele>1701.8</ele>
<time>2021-03-23T23:20:57Z</time>
<speed>7.7</speed>
</trkpt>
<trkpt lat="31.89711951" lon="-109.21756132">
<ele>1703.1</ele>
<time>2021-03-23T23:20:58Z</time>
<speed>7.7</speed>
</trkpt>
<trkpt lat="31.89710869" lon="-109.21764153">
<ele>1704</ele>
<time>2021-03-23T23:20:59Z</time>
<speed>7.7</speed>
</trkpt>
<trkpt lat="31.89709692" lon="-109.21772224">
<ele>1703.9</ele>
<time>2021-03-23T23:21:00Z</time>
<speed>7.8</speed>
</trkpt>
<trkpt lat="31.89708532" lon="-109.21780278">
<ele>1704.8</ele>
<time>2021-03-23T23:21:01Z</time>
<speed>7.7</speed>
</trkpt>
<trkpt lat="31.89707823" lon="-109.2178833">
<ele>1705.2</ele>
<time>2021-03-23T23:21:02Z</time>
<speed>7.7</speed>
</trkpt>
<trkpt lat="31.89707262" lon="-109.21796462">
<ele>1705.1</ele>
<time>2021-03-23T23:21:03Z</time>
<speed>7.7</speed>
</trkpt>
<trkpt lat="31.89706909" lon="-109.21804482">
<ele>1706</ele>
<time>2021-03-23T23:21:04Z</time>
<speed>7.7</speed>
</trkpt>
<trkpt lat="31.89707566" lon="-109.21812295">
<ele>1706.3</ele>
<time>2021-03-23T23:21:05Z</time>
<speed>7.6</speed>
</trkpt>
<trkpt lat="31.89708904" lon="-109.21819984">
<ele>1706.9</ele>
<time>2021-03-23T23:21:06Z</time>
<speed>7.6</speed>
</trkpt>
<trkpt lat="31.89711447" lon="-109.21827405">
<ele>1707</ele>
<time>2021-03-23T23:21:07Z</time>
<speed>7.2</speed>
</trkpt>
<trkpt lat="31.89714242" lon="-109.21834042">
<ele>1707.5</ele>
<time>2021-03-23T23:21:08Z</time>
<speed>7</speed>
</trkpt>
<trkpt lat="31.89717736" lon="-109.21840529">
<ele>1707.9</ele>
<time>2021-03-23T23:21:09Z</time>
<speed>6.8</speed>
</trkpt>
<trkpt lat="31.89720819" lon="-109.21846365">
<ele>1708.4</ele>
<time>2021-03-23T23:21:10Z</time>
<speed>6.5</speed>
</trkpt>
<trkpt lat="31.89723707" lon="-109.21853203">
<ele>1709.2</ele>
<time>2021-03-23T23:21:11Z</time>
<speed>6.9</speed>
</trkpt>
<trkpt lat="31.89726453" lon="-109.21859982">
<ele>1709.6</ele>
<time>2021-03-23T23:21:12Z</time>
<speed>7</speed>
</trkpt>
<trkpt lat="31.89729135" lon="-109.21867383">
<ele>1710.1</ele>
<time>2021-03-23T23:21:13Z</time>
<speed>7.6</speed>
</trkpt>
<trkpt lat="31.89731908" lon="-109.21875482">
<ele>1711.1</ele>
<time>2021-03-23T23:21:14Z</time>
<speed>8.1</speed>
</trkpt>
<trkpt lat="31.89734489" lon="-109.21883843">
<ele>1712</ele>
<time>2021-03-23T23:21:15Z</time>
<speed>8.5</speed>
</trkpt>
<trkpt lat="31.89737554" lon="-109.21892243">
<ele>1712.9</ele>
<time>2021-03-23T23:21:16Z</time>
<speed>8.6</speed>
</trkpt>
<trkpt lat="31.89740673" lon="-109.21900324">
<ele>1713.7</ele>
<time>2021-03-23T23:21:17Z</time>
<speed>8.5</speed>
</trkpt>
<trkpt lat="31.89744102" lon="-109.21908184">
<ele>1714.3</ele>
<time>2021-03-23T23:21:18Z</time>
<speed>8.5</speed>
</trkpt>
<trkpt lat="31.89748187" lon="-109.21915989">
<ele>1714.9</ele>
<time>2021-03-23T23:21:19Z</time>
<speed>8.4</speed>
</trkpt>
<trkpt lat="31.89751899" lon="-109.21923533">
<ele>1715.4</ele>
<time>2021-03-23T23:21:20Z</time>
<speed>8.4</speed>
</trkpt>
<trkpt lat="31.8975596" lon="-109.21930863">
<ele>1715.9</ele>
<time>2021-03-23T23:21:21Z</time>
<speed>8.4</speed>
</trkpt>
<trkpt lat="31.89760048" lon="-109.21938628">
<ele>1716.1</ele>
<time>2021-03-23T23:21:22Z</time>
<speed>8.5</speed>
</trkpt>
<trkpt lat="31.89763737" lon="-109.21946073">
<ele>1716.7</ele>
<time>2021-03-23T23:21:23Z</time>
<speed>8.4</speed>
</trkpt>
<trkpt lat="31.89766597" lon="-109.21954239">
<ele>1717.2</ele>
<time>2021-03-23T23:21:24Z</time>
<speed>8.4</speed>
</trkpt>
<trkpt lat="31.89768954" lon="-109.21961997">
<ele>1717.3</ele>
<time>2021-03-23T23:21:25Z</time>
<speed>8</speed>
</trkpt>
<trkpt lat="31.89770393" lon="-109.21971348">
<ele>1717.3</ele>
<time>2021-03-23T23:21:26Z</time>
<speed>8.6</speed>
</trkpt>
<trkpt lat="31.89771064" lon="-109.21980372">
<ele>1717.9</ele>
<time>2021-03-23T23:21:27Z</time>
<speed>8.6</speed>
</trkpt>
<trkpt lat="31.89771895" lon="-109.21989261">
<ele>1718.1</ele>
<time>2021-03-23T23:21:28Z</time>
<speed>8.5</speed>
</trkpt>
<trkpt lat="31.89772369" lon="-109.21997482">
<ele>1718.1</ele>
<time>2021-03-23T23:21:29Z</time>
<speed>8.1</speed>
</trkpt>
<trkpt lat="31.89773478" lon="-109.22005905">
<ele>1718.7</ele>
<time>2021-03-23T23:21:30Z</time>
<speed>7.7</speed>
</trkpt>
<trkpt lat="31.89775066" lon="-109.22013573">
<ele>1719.5</ele>
<time>2021-03-23T23:21:31Z</time>
<speed>7.5</speed>
</trkpt>
<trkpt lat="31.89777506" lon="-109.2202046">
<ele>1720.3</ele>
<time>2021-03-23T23:21:32Z</time>
<speed>7.2</speed>
</trkpt>
<trkpt lat="31.89780753" lon="-109.22026677">
<ele>1720.8</ele>
<time>2021-03-23T23:21:33Z</time>
<speed>6.9</speed>
</trkpt>
<trkpt lat="31.89784708" lon="-109.22032747">
<ele>1721.4</ele>
<time>2021-03-23T23:21:34Z</time>
<speed>7.1</speed>
</trkpt>
<trkpt lat="31.89788671" lon="-109.22039346">
<ele>1721.6</ele>
<time>2021-03-23T23:21:35Z</time>
<speed>7.3</speed>
</trkpt>
<trkpt lat="31.89792983" lon="-109.22046129">
<ele>1722.3</ele>
<time>2021-03-23T23:21:36Z</time>
<speed>7.4</speed>
</trkpt>
<trkpt lat="31.89796745" lon="-109.22052776">
<ele>1722.8</ele>
<time>2021-03-23T23:21:37Z</time>
<speed>7.6</speed>
</trkpt>
<trkpt lat="31.89800616" lon="-109.22060351">
<ele>1723.7</ele>
<time>2021-03-23T23:21:38Z</time>
<speed>8.1</speed>
</trkpt>
<trkpt lat="31.89804072" lon="-109.22068867">
<ele>1724.4</ele>
<time>2021-03-23T23:21:39Z</time>
<speed>9.2</speed>
</trkpt>
<trkpt lat="31.89807844" lon="-109.2207829">
<ele>1724.6</ele>
<time>2021-03-23T23:21:40Z</time>
<speed>10</speed>
</trkpt>
<trkpt lat="31.8981168" lon="-109.22088221">
<ele>1724.6</ele>
<time>2021-03-23T23:21:41Z</time>
<speed>10.3</speed>
</trkpt>
<trkpt lat="31.8981465" lon="-109.22099012">
<ele>1725.6</ele>
<time>2021-03-23T23:21:42Z</time>
<speed>10.7</speed>
</trkpt>
<trkpt lat="31.898177" lon="-109.2211014">
<ele>1726.6</ele>
<time>2021-03-23T23:21:43Z</time>
<speed>11.2</speed>
</trkpt>
<trkpt lat="31.8982041" lon="-109.2212235">
<ele>1727.4</ele>
<time>2021-03-23T23:21:44Z</time>
<speed>11.8</speed>
</trkpt>
<trkpt lat="31.89823228" lon="-109.22134789">
<ele>1728.2</ele>
<time>2021-03-23T23:21:45Z</time>
<speed>12.1</speed>
</trkpt>
<trkpt lat="31.8982627" lon="-109.22147202">
<ele>1729.4</ele>
<time>2021-03-23T23:21:46Z</time>
<speed>12.3</speed>
</trkpt>
<trkpt lat="31.8982905" lon="-109.22160006">
<ele>1730.8</ele>
<time>2021-03-23T23:21:47Z</time>
<speed>12.5</speed>
</trkpt>
<trkpt lat="31.89832076" lon="-109.22172927">
<ele>1731.3</ele>
<time>2021-03-23T23:21:48Z</time>
<speed>12.5</speed>
</trkpt>
<trkpt lat="31.89834735" lon="-109.22185987">
<ele>1732.3</ele>
<time>2021-03-23T23:21:49Z</time>
<speed>12.6</speed>
</trkpt>
<trkpt lat="31.89837335" lon="-109.22198884">
<ele>1732.6</ele>
<time>2021-03-23T23:21:50Z</time>
<speed>12.5</speed>
</trkpt>
<trkpt lat="31.8984005" lon="-109.22211575">
<ele>1733.2</ele>
<time>2021-03-23T23:21:51Z</time>
<speed>12.4</speed>
</trkpt>
<trkpt lat="31.89842875" lon="-109.22223825">
<ele>1734.4</ele>
<time>2021-03-23T23:21:52Z</time>
<speed>12.1</speed>
</trkpt>
<trkpt lat="31.8984589" lon="-109.22235524">
<ele>1736</ele>
<time>2021-03-23T23:21:53Z</time>
<speed>11.6</speed>
</trkpt>
<trkpt lat="31.89848966" lon="-109.22246367">
<ele>1737.3</ele>
<time>2021-03-23T23:21:54Z</time>
<speed>11</speed>
</trkpt>
<trkpt lat="31.89851569" lon="-109.22257347">
<ele>1737.9</ele>
<time>2021-03-23T23:21:55Z</time>
<speed>10.5</speed>
</trkpt>
<trkpt lat="31.89853617" lon="-109.22267845">
<ele>1738.7</ele>
<time>2021-03-23T23:21:56Z</time>
<speed>10.4</speed>
</trkpt>
<trkpt lat="31.89854348" lon="-109.22278969">
<ele>1739.2</ele>
<time>2021-03-23T23:21:57Z</time>
<speed>10.5</speed>
</trkpt>
<trkpt lat="31.89854344" lon="-109.22289536">
<ele>1740.5</ele>
<time>2021-03-23T23:21:58Z</time>
<speed>10.1</speed>
</trkpt>
<trkpt lat="31.8985381" lon="-109.22299548">
<ele>1741.4</ele>
<time>2021-03-23T23:21:59Z</time>
<speed>9.7</speed>
</trkpt>
<trkpt lat="31.89852848" lon="-109.22309403">
<ele>1742.1</ele>
<time>2021-03-23T23:22:00Z</time>
<speed>9.3</speed>
</trkpt>
<trkpt lat="31.89851942" lon="-109.22318803">
<ele>1743.1</ele>
<time>2021-03-23T23:22:01Z</time>
<speed>9</speed>
</trkpt>
<trkpt lat="31.89851036" lon="-109.22328353">
<ele>1743.8</ele>
<time>2021-03-23T23:22:02Z</time>
<speed>9</speed>
</trkpt>
<trkpt lat="31.89850238" lon="-109.22337747">
<ele>1744.5</ele>
<time>2021-03-23T23:22:03Z</time>
<speed>9</speed>
</trkpt>
<trkpt lat="31.89849457" lon="-109.22346949">
<ele>1745.1</ele>
<time>2021-03-23T23:22:04Z</time>
<speed>8.7</speed>
</trkpt>
<trkpt lat="31.89848762" lon="-109.2235608">
<ele>1745.7</ele>
<time>2021-03-23T23:22:05Z</time>
<speed>8.4</speed>
</trkpt>
<trkpt lat="31.89848062" lon="-109.22364379">
<ele>1746.3</ele>
<time>2021-03-23T23:22:06Z</time>
<speed>8</speed>
</trkpt>
<trkpt lat="31.89847281" lon="-109.22372227">
<ele>1746.8</ele>
<time>2021-03-23T23:22:07Z</time>
<speed>7.5</speed>
</trkpt>
<trkpt lat="31.89846847" lon="-109.22379773">
<ele>1747.4</ele>
<time>2021-03-23T23:22:08Z</time>
<speed>7.1</speed>
</trkpt>
<trkpt lat="31.89846356" lon="-109.22387056">
<ele>1747.8</ele>
<time>2021-03-23T23:22:09Z</time>
<speed>6.9</speed>
</trkpt>
<trkpt lat="31.89846242" lon="-109.22394171">
<ele>1747.6</ele>
<time>2021-03-23T23:22:10Z</time>
<speed>6.8</speed>
</trkpt>
<trkpt lat="31.89845742" lon="-109.22401638">
<ele>1748.6</ele>
<time>2021-03-23T23:22:11Z</time>
<speed>7.1</speed>
</trkpt>
<trkpt lat="31.89845921" lon="-109.22409153">
<ele>1748.8</ele>
<time>2021-03-23T23:22:12Z</time>
<speed>7.1</speed>
</trkpt>
<trkpt lat="31.89846561" lon="-109.22416339">
<ele>1749.1</ele>
<time>2021-03-23T23:22:13Z</time>
<speed>7.3</speed>
</trkpt>
<trkpt lat="31.89847271" lon="-109.22424026">
<ele>1749.7</ele>
<time>2021-03-23T23:22:14Z</time>
<speed>7.4</speed>
</trkpt>
<trkpt lat="31.89847929" lon="-109.22431795">
<ele>1750.2</ele>
<time>2021-03-23T23:22:15Z</time>
<speed>7.5</speed>
</trkpt>
<trkpt lat="31.89848734" lon="-109.22439581">
<ele>1751.1</ele>
<time>2021-03-23T23:22:16Z</time>
<speed>7.6</speed>
</trkpt>
<trkpt lat="31.89849633" lon="-109.22447117">
<ele>1752.3</ele>
<time>2021-03-23T23:22:17Z</time>
<speed>7.1</speed>
</trkpt>
<trkpt lat="31.89850529" lon="-109.22454305">
<ele>1752.7</ele>
<time>2021-03-23T23:22:18Z</time>
<speed>6.7</speed>
</trkpt>
<trkpt lat="31.89851784" lon="-109.22460894">
<ele>1752.6</ele>
<time>2021-03-23T23:22:19Z</time>
<speed>6.3</speed>
</trkpt>
<trkpt lat="31.89852496" lon="-109.22467009">
<ele>1753.1</ele>
<time>2021-03-23T23:22:20Z</time>
<speed>5.9</speed>
</trkpt>
<trkpt lat="31.89853163" lon="-109.22472641">
<ele>1753.5</ele>
<time>2021-03-23T23:22:21Z</time>
<speed>5.3</speed>
</trkpt>
<trkpt lat="31.89853577" lon="-109.22477756">
<ele>1753</ele>
<time>2021-03-23T23:22:22Z</time>
<speed>5.1</speed>
</trkpt>
<trkpt lat="31.8985411" lon="-109.22483499">
<ele>1753.2</ele>
<time>2021-03-23T23:22:23Z</time>
<speed>5.4</speed>
</trkpt>
<trkpt lat="31.89854485" lon="-109.22489096">
<ele>1754.7</ele>
<time>2021-03-23T23:22:24Z</time>
<speed>5.2</speed>
</trkpt>
<trkpt lat="31.89854861" lon="-109.22494573">
<ele>1755.8</ele>
<time>2021-03-23T23:22:25Z</time>
<speed>5.3</speed>
</trkpt>
<trkpt lat="31.89855684" lon="-109.22500461">
<ele>1754.8</ele>
<time>2021-03-23T23:22:26Z</time>
<speed>5.5</speed>
</trkpt>
<trkpt lat="31.89856963" lon="-109.2250576">
<ele>1754.8</ele>
<time>2021-03-23T23:22:27Z</time>
<speed>5.2</speed>
</trkpt>
<trkpt lat="31.89857243" lon="-109.22512121">
<ele>1755.2</ele>
<time>2021-03-23T23:22:28Z</time>
<speed>5.8</speed>
</trkpt>
<trkpt lat="31.89857703" lon="-109.22518857">
<ele>1755.9</ele>
<time>2021-03-23T23:22:29Z</time>
<speed>6.4</speed>
</trkpt>
<trkpt lat="31.89858235" lon="-109.22525407">
<ele>1755.5</ele>
<time>2021-03-23T23:22:30Z</time>
<speed>6.3</speed>
</trkpt>
<trkpt lat="31.89858783" lon="-109.22532028">
<ele>1756.5</ele>
<time>2021-03-23T23:22:31Z</time>
<speed>6.3</speed>
</trkpt>
<trkpt lat="31.89858581" lon="-109.22539719">
<ele>1756.9</ele>
<time>2021-03-23T23:22:32Z</time>
<speed>7</speed>
</trkpt>
<trkpt lat="31.89858434" lon="-109.22547564">
<ele>1757.2</ele>
<time>2021-03-23T23:22:33Z</time>
<speed>7.1</speed>
</trkpt>
<trkpt lat="31.89857947" lon="-109.22554786">
<ele>1758.2</ele>
<time>2021-03-23T23:22:34Z</time>
<speed>7</speed>
</trkpt>
<trkpt lat="31.89857495" lon="-109.2256181">
<ele>1758.8</ele>
<time>2021-03-23T23:22:35Z</time>
<speed>6.6</speed>
</trkpt>
<trkpt lat="31.89857067" lon="-109.22567598">
<ele>1759.1</ele>
<time>2021-03-23T23:22:36Z</time>
<speed>5.5</speed>
</trkpt>
<trkpt lat="31.89856539" lon="-109.22572683">
<ele>1759.5</ele>
<time>2021-03-23T23:22:37Z</time>
<speed>4.7</speed>
</trkpt>
<trkpt lat="31.898562" lon="-109.22577037">
<ele>1759.3</ele>
<time>2021-03-23T23:22:38Z</time>
<speed>3.8</speed>
</trkpt>
<trkpt lat="31.89855422" lon="-109.22584947">
<ele>1758.8</ele>
<time>2021-03-23T23:22:40Z</time>
<speed>3.6</speed>
</trkpt>
<trkpt lat="31.89854596" lon="-109.22589407">
<ele>1759.3</ele>
<time>2021-03-23T23:22:41Z</time>
<speed>4.1</speed>
</trkpt>
<trkpt lat="31.89853717" lon="-109.22593892">
<ele>1759.5</ele>
<time>2021-03-23T23:22:42Z</time>
<speed>4.3</speed>
</trkpt>
<trkpt lat="31.89853237" lon="-109.22598619">
<ele>1760.1</ele>
<time>2021-03-23T23:22:43Z</time>
<speed>4.5</speed>
</trkpt>
<trkpt lat="31.89853072" lon="-109.226035">
<ele>1760.3</ele>
<time>2021-03-23T23:22:44Z</time>
<speed>4.5</speed>
</trkpt>
<trkpt lat="31.89853083" lon="-109.22608914">
<ele>1760.8</ele>
<time>2021-03-23T23:22:45Z</time>
<speed>5</speed>
</trkpt>
<trkpt lat="31.89854139" lon="-109.22615146">
<ele>1760.9</ele>
<time>2021-03-23T23:22:46Z</time>
<speed>5.1</speed>
</trkpt>
<trkpt lat="31.89854937" lon="-109.22620683">
<ele>1761.5</ele>
<time>2021-03-23T23:22:47Z</time>
<speed>5.3</speed>
</trkpt>
<trkpt lat="31.8985628" lon="-109.22625873">
<ele>1761.5</ele>
<time>2021-03-23T23:22:48Z</time>
<speed>4.9</speed>
</trkpt>
<trkpt lat="31.8985847" lon="-109.22630473">
<ele>1761.9</ele>
<time>2021-03-23T23:22:49Z</time>
<speed>4.7</speed>
</trkpt>
<trkpt lat="31.89860996" lon="-109.22634731">
<ele>1762.7</ele>
<time>2021-03-23T23:22:50Z</time>
<speed>4.7</speed>
</trkpt>
<trkpt lat="31.89864274" lon="-109.22638691">
<ele>1761.9</ele>
<time>2021-03-23T23:22:51Z</time>
<speed>5.2</speed>
</trkpt>
<trkpt lat="31.8986902" lon="-109.22640771">
<ele>1761.7</ele>
<time>2021-03-23T23:22:52Z</time>
<speed>5.7</speed>
</trkpt>
<trkpt lat="31.89874262" lon="-109.22642576">
<ele>1762.3</ele>
<time>2021-03-23T23:22:53Z</time>
<speed>5.9</speed>
</trkpt>
<trkpt lat="31.89879395" lon="-109.2264356">
<ele>1762.7</ele>
<time>2021-03-23T23:22:54Z</time>
<speed>5.7</speed>
</trkpt>
<trkpt lat="31.89884493" lon="-109.22642663">
<ele>1763.6</ele>
<time>2021-03-23T23:22:55Z</time>
<speed>5.7</speed>
</trkpt>
<trkpt lat="31.89890271" lon="-109.22642486">
<ele>1764.3</ele>
<time>2021-03-23T23:22:56Z</time>
<speed>6.3</speed>
</trkpt>
<trkpt lat="31.89895973" lon="-109.22641993">
<ele>1765</ele>
<time>2021-03-23T23:22:57Z</time>
<speed>6.6</speed>
</trkpt>
<trkpt lat="31.89901361" lon="-109.22642006">
<ele>1767.1</ele>
<time>2021-03-23T23:22:58Z</time>
<speed>7.1</speed>
</trkpt>
<trkpt lat="31.89907217" lon="-109.22640511">
<ele>1766.3</ele>
<time>2021-03-23T23:22:59Z</time>
<speed>6.6</speed>
</trkpt>
<trkpt lat="31.89913082" lon="-109.22638216">
<ele>1766.7</ele>
<time>2021-03-23T23:23:00Z</time>
<speed>6.5</speed>
</trkpt>
<trkpt lat="31.89919433" lon="-109.22636295">
<ele>1767.4</ele>
<time>2021-03-23T23:23:01Z</time>
<speed>6.5</speed>
</trkpt>
<trkpt lat="31.89925572" lon="-109.22634377">
<ele>1768.5</ele>
<time>2021-03-23T23:23:02Z</time>
<speed>6.6</speed>
</trkpt>
<trkpt lat="31.89931278" lon="-109.22631819">
<ele>1768.6</ele>
<time>2021-03-23T23:23:03Z</time>
<speed>6.8</speed>
</trkpt>
<trkpt lat="31.89937035" lon="-109.22628975">
<ele>1769.3</ele>
<time>2021-03-23T23:23:04Z</time>
<speed>7.1</speed>
</trkpt>
<trkpt lat="31.89942468" lon="-109.22625008">
<ele>1770.1</ele>
<time>2021-03-23T23:23:05Z</time>
<speed>7</speed>
</trkpt>
<trkpt lat="31.89947858" lon="-109.22621037">
<ele>1770.6</ele>
<time>2021-03-23T23:23:06Z</time>
<speed>6.9</speed>
</trkpt>
<trkpt lat="31.8995277" lon="-109.2261694">
<ele>1770.9</ele>
<time>2021-03-23T23:23:07Z</time>
<speed>6.9</speed>
</trkpt>
<trkpt lat="31.89957681" lon="-109.22612699">
<ele>1771.4</ele>
<time>2021-03-23T23:23:08Z</time>
<speed>6.9</speed>
</trkpt>
<trkpt lat="31.8996261" lon="-109.22608207">
<ele>1771.8</ele>
<time>2021-03-23T23:23:09Z</time>
<speed>6.8</speed>
</trkpt>
<trkpt lat="31.89967945" lon="-109.22604559">
<ele>1772.2</ele>
<time>2021-03-23T23:23:10Z</time>
<speed>6.9</speed>
</trkpt>
<trkpt lat="31.89973651" lon="-109.22601176">
<ele>1772.4</ele>
<time>2021-03-23T23:23:11Z</time>
<speed>6.9</speed>
</trkpt>
<trkpt lat="31.89978972" lon="-109.2259797">
<ele>1772.3</ele>
<time>2021-03-23T23:23:12Z</time>
<speed>6.7</speed>
</trkpt>
<trkpt lat="31.89984832" lon="-109.22596897">
<ele>1772.7</ele>
<time>2021-03-23T23:23:13Z</time>
<speed>6.3</speed>
</trkpt>
<trkpt lat="31.89990429" lon="-109.22597167">
<ele>1773.4</ele>
<time>2021-03-23T23:23:14Z</time>
<speed>6.1</speed>
</trkpt>
<trkpt lat="31.89995584" lon="-109.22598776">
<ele>1773.2</ele>
<time>2021-03-23T23:23:15Z</time>
<speed>5.8</speed>
</trkpt>
<trkpt lat="31.90000377" lon="-109.22602312">
<ele>1773.6</ele>
<time>2021-03-23T23:23:16Z</time>
<speed>6</speed>
</trkpt>
<trkpt lat="31.90004045" lon="-109.22607222">
<ele>1773.9</ele>
<time>2021-03-23T23:23:17Z</time>
<speed>6.1</speed>
</trkpt>
<trkpt lat="31.90007239" lon="-109.22613046">
<ele>1774.4</ele>
<time>2021-03-23T23:23:18Z</time>
<speed>6.2</speed>
</trkpt>
<trkpt lat="31.90009649" lon="-109.2261907">
<ele>1774.8</ele>
<time>2021-03-23T23:23:19Z</time>
<speed>6.2</speed>
</trkpt>
<trkpt lat="31.9001163" lon="-109.22625192">
<ele>1775</ele>
<time>2021-03-23T23:23:20Z</time>
<speed>6.2</speed>
</trkpt>
<trkpt lat="31.90013664" lon="-109.22631263">
<ele>1775.3</ele>
<time>2021-03-23T23:23:21Z</time>
<speed>6.1</speed>
</trkpt>
<trkpt lat="31.90015315" lon="-109.2263703">
<ele>1775.5</ele>
<time>2021-03-23T23:23:22Z</time>
<speed>5.9</speed>
</trkpt>
<trkpt lat="31.90016945" lon="-109.22643303">
<ele>1775.5</ele>
<time>2021-03-23T23:23:23Z</time>
<speed>5.9</speed>
</trkpt>
<trkpt lat="31.90018616" lon="-109.22649245">
<ele>1775.9</ele>
<time>2021-03-23T23:23:24Z</time>
<speed>6</speed>
</trkpt>
<trkpt lat="31.90020428" lon="-109.22655284">
<ele>1775.9</ele>
<time>2021-03-23T23:23:25Z</time>
<speed>6</speed>
</trkpt>
<trkpt lat="31.90021953" lon="-109.22660719">
<ele>1775.4</ele>
<time>2021-03-23T23:23:26Z</time>
<speed>6.1</speed>
</trkpt>
<trkpt lat="31.90023484" lon="-109.22666919">
<ele>1775.5</ele>
<time>2021-03-23T23:23:27Z</time>
<speed>6.2</speed>
</trkpt>
<trkpt lat="31.90025161" lon="-109.22672892">
<ele>1776.1</ele>
<time>2021-03-23T23:23:28Z</time>
<speed>6</speed>
</trkpt>
<trkpt lat="31.9002652" lon="-109.22679541">
<ele>1776.8</ele>
<time>2021-03-23T23:23:29Z</time>
<speed>6.4</speed>
</trkpt>
<trkpt lat="31.90028085" lon="-109.22686235">
<ele>1776.7</ele>
<time>2021-03-23T23:23:30Z</time>
<speed>6.4</speed>
</trkpt>
<trkpt lat="31.90029728" lon="-109.22692581">
<ele>1777.4</ele>
<time>2021-03-23T23:23:31Z</time>
<speed>6.2</speed>
</trkpt>
<trkpt lat="31.90031229" lon="-109.22699154">
<ele>1777.4</ele>
<time>2021-03-23T23:23:32Z</time>
<speed>6.2</speed>
</trkpt>
<trkpt lat="31.90032827" lon="-109.22705561">
<ele>1777.7</ele>
<time>2021-03-23T23:23:33Z</time>
<speed>6.1</speed>
</trkpt>
<trkpt lat="31.90034352" lon="-109.22711567">
<ele>1778.1</ele>
<time>2021-03-23T23:23:34Z</time>
<speed>6.1</speed>
</trkpt>
<trkpt lat="31.90035807" lon="-109.22717898">
<ele>1778.4</ele>
<time>2021-03-23T23:23:35Z</time>
<speed>6.1</speed>
</trkpt>
<trkpt lat="31.90037436" lon="-109.22724143">
<ele>1779.3</ele>
<time>2021-03-23T23:23:36Z</time>
<speed>6.1</speed>
</trkpt>
<trkpt lat="31.90038968" lon="-109.22730501">
<ele>1780.2</ele>
<time>2021-03-23T23:23:37Z</time>
<speed>6</speed>
</trkpt>
<trkpt lat="31.90040423" lon="-109.22736642">
<ele>1780.4</ele>
<time>2021-03-23T23:23:38Z</time>
<speed>6</speed>
</trkpt>
<trkpt lat="31.90041884" lon="-109.22742769">
<ele>1780.5</ele>
<time>2021-03-23T23:23:39Z</time>
<speed>6</speed>
</trkpt>
<trkpt lat="31.9004359" lon="-109.22748742">
<ele>1780.5</ele>
<time>2021-03-23T23:23:40Z</time>
<speed>6.2</speed>
</trkpt>
<trkpt lat="31.90044898" lon="-109.22755184">
<ele>1780.8</ele>
<time>2021-03-23T23:23:41Z</time>
<speed>6.4</speed>
</trkpt>
<trkpt lat="31.900467" lon="-109.22761917">
<ele>1781.2</ele>
<time>2021-03-23T23:23:42Z</time>
<speed>6.6</speed>
</trkpt>
<trkpt lat="31.90048446" lon="-109.22769031">
<ele>1781.6</ele>
<time>2021-03-23T23:23:43Z</time>
<speed>7.1</speed>
</trkpt>
<trkpt lat="31.90050494" lon="-109.22776537">
<ele>1782.3</ele>
<time>2021-03-23T23:23:44Z</time>
<speed>7.3</speed>
</trkpt>
<trkpt lat="31.90052581" lon="-109.22783691">
<ele>1783</ele>
<time>2021-03-23T23:23:45Z</time>
<speed>7.1</speed>
</trkpt>
<trkpt lat="31.90054377" lon="-109.22790555">
<ele>1783.3</ele>
<time>2021-03-23T23:23:46Z</time>
<speed>6.7</speed>
</trkpt>
<trkpt lat="31.90056146" lon="-109.22797062">
<ele>1783.6</ele>
<time>2021-03-23T23:23:47Z</time>
<speed>6.5</speed>
</trkpt>
<trkpt lat="31.90057832" lon="-109.22803423">
<ele>1783.8</ele>
<time>2021-03-23T23:23:48Z</time>
<speed>6.4</speed>
</trkpt>
<trkpt lat="31.90059511" lon="-109.22809837">
<ele>1784.3</ele>
<time>2021-03-23T23:23:49Z</time>
<speed>6.3</speed>
</trkpt>
<trkpt lat="31.90061205" lon="-109.22816106">
<ele>1784.3</ele>
<time>2021-03-23T23:23:50Z</time>
<speed>6</speed>
</trkpt>
<trkpt lat="31.9006273" lon="-109.22821679">
<ele>1785</ele>
<time>2021-03-23T23:23:51Z</time>
<speed>5.9</speed>
</trkpt>
<trkpt lat="31.90064431" lon="-109.22827738">
<ele>1785.8</ele>
<time>2021-03-23T23:23:52Z</time>
<speed>5.9</speed>
</trkpt>
<trkpt lat="31.90065847" lon="-109.22833939">
<ele>1786</ele>
<time>2021-03-23T23:23:53Z</time>
<speed>5.9</speed>
</trkpt>
<trkpt lat="31.9006742" lon="-109.22840126">
<ele>1786.2</ele>
<time>2021-03-23T23:23:54Z</time>
<speed>5.8</speed>
</trkpt>
<trkpt lat="31.90068479" lon="-109.22845815">
<ele>1786.4</ele>
<time>2021-03-23T23:23:55Z</time>
<speed>5.8</speed>
</trkpt>
<trkpt lat="31.9006974" lon="-109.22851908">
<ele>1787.1</ele>
<time>2021-03-23T23:23:56Z</time>
<speed>5.9</speed>
</trkpt>
<trkpt lat="31.90071086" lon="-109.22858263">
<ele>1788.2</ele>
<time>2021-03-23T23:23:57Z</time>
<speed>6</speed>
</trkpt>
<trkpt lat="31.90072161" lon="-109.22864256">
<ele>1788.8</ele>
<time>2021-03-23T23:23:58Z</time>
<speed>6</speed>
</trkpt>
<trkpt lat="31.90073117" lon="-109.22870347">
<ele>1789.4</ele>
<time>2021-03-23T23:23:59Z</time>
<speed>6</speed>
</trkpt>
<trkpt lat="31.90073986" lon="-109.22876834">
<ele>1789.8</ele>
<time>2021-03-23T23:24:00Z</time>
<speed>6.2</speed>
</trkpt>
<trkpt lat="31.90074857" lon="-109.22883487">
<ele>1790.5</ele>
<time>2021-03-23T23:24:01Z</time>
<speed>6.4</speed>
</trkpt>
<trkpt lat="31.90075687" lon="-109.22889984">
<ele>1790.9</ele>
<time>2021-03-23T23:24:02Z</time>
<speed>6.5</speed>
</trkpt>
<trkpt lat="31.90076565" lon="-109.22896883">
<ele>1791.9</ele>
<time>2021-03-23T23:24:03Z</time>
<speed>6.6</speed>
</trkpt>
<trkpt lat="31.90077513" lon="-109.22903398">
<ele>1792.3</ele>
<time>2021-03-23T23:24:04Z</time>
<speed>6.5</speed>
</trkpt>
<trkpt lat="31.90078004" lon="-109.22910271">
<ele>1793</ele>
<time>2021-03-23T23:24:05Z</time>
<speed>6.6</speed>
</trkpt>
<trkpt lat="31.90078353" lon="-109.22917001">
<ele>1793.4</ele>
<time>2021-03-23T23:24:06Z</time>
<speed>6.5</speed>
</trkpt>
<trkpt lat="31.9007866" lon="-109.2292416">
<ele>1794.2</ele>
<time>2021-03-23T23:24:07Z</time>
<speed>6.6</speed>
</trkpt>
<trkpt lat="31.90078978" lon="-109.22931185">
<ele>1794.6</ele>
<time>2021-03-23T23:24:08Z</time>
<speed>6.6</speed>
</trkpt>
<trkpt lat="31.90079636" lon="-109.22938153">
<ele>1795.2</ele>
<time>2021-03-23T23:24:09Z</time>
<speed>6.5</speed>
</trkpt>
<trkpt lat="31.90080348" lon="-109.22944801">
<ele>1795.9</ele>
<time>2021-03-23T23:24:10Z</time>
<speed>6.2</speed>
</trkpt>
<trkpt lat="31.90080757" lon="-109.22951241">
<ele>1796.4</ele>
<time>2021-03-23T23:24:11Z</time>
<speed>6.1</speed>
</trkpt>
<trkpt lat="31.90081433" lon="-109.22957704">
<ele>1797</ele>
<time>2021-03-23T23:24:12Z</time>
<speed>6.1</speed>
</trkpt>
<trkpt lat="31.90081973" lon="-109.22964134">
<ele>1797.4</ele>
<time>2021-03-23T23:24:13Z</time>
<speed>6.1</speed>
</trkpt>
<trkpt lat="31.90082637" lon="-109.22970565">
<ele>1797.8</ele>
<time>2021-03-23T23:24:14Z</time>
<speed>6.2</speed>
</trkpt>
<trkpt lat="31.90083631" lon="-109.22976861">
<ele>1797.9</ele>
<time>2021-03-23T23:24:15Z</time>
<speed>6.4</speed>
</trkpt>
<trkpt lat="31.90084707" lon="-109.22983547">
<ele>1798.6</ele>
<time>2021-03-23T23:24:16Z</time>
<speed>6.6</speed>
</trkpt>
<trkpt lat="31.90085509" lon="-109.22990456">
<ele>1799</ele>
<time>2021-03-23T23:24:17Z</time>
<speed>6.8</speed>
</trkpt>
<trkpt lat="31.90086316" lon="-109.22997715">
<ele>1799.5</ele>
<time>2021-03-23T23:24:18Z</time>
<speed>6.9</speed>
</trkpt>
<trkpt lat="31.90087051" lon="-109.2300475">
<ele>1800</ele>
<time>2021-03-23T23:24:19Z</time>
<speed>6.9</speed>
</trkpt>
<trkpt lat="31.90087679" lon="-109.23012154">
<ele>1801</ele>
<time>2021-03-23T23:24:20Z</time>
<speed>6.8</speed>
</trkpt>
<trkpt lat="31.90088488" lon="-109.23019132">
<ele>1801.1</ele>
<time>2021-03-23T23:24:21Z</time>
<speed>6.8</speed>
</trkpt>
<trkpt lat="31.90089093" lon="-109.23026511">
<ele>1801.9</ele>
<time>2021-03-23T23:24:22Z</time>
<speed>6.9</speed>
</trkpt>
<trkpt lat="31.90089689" lon="-109.23033949">
<ele>1802.4</ele>
<time>2021-03-23T23:24:23Z</time>
<speed>7</speed>
</trkpt>
<trkpt lat="31.90090616" lon="-109.23041828">
<ele>1803.2</ele>
<time>2021-03-23T23:24:24Z</time>
<speed>7.3</speed>
</trkpt>
<trkpt lat="31.90091611" lon="-109.23049918">
<ele>1803.9</ele>
<time>2021-03-23T23:24:25Z</time>
<speed>7.7</speed>
</trkpt>
<trkpt lat="31.90092917" lon="-109.23057893">
<ele>1804.5</ele>
<time>2021-03-23T23:24:26Z</time>
<speed>7.9</speed>
</trkpt>
<trkpt lat="31.90094597" lon="-109.23065905">
<ele>1804.9</ele>
<time>2021-03-23T23:24:27Z</time>
<speed>7.8</speed>
</trkpt>
<trkpt lat="31.90096662" lon="-109.23073889">
<ele>1805.6</ele>
<time>2021-03-23T23:24:28Z</time>
<speed>7.6</speed>
</trkpt>
<trkpt lat="31.90098907" lon="-109.23081561">
<ele>1805.9</ele>
<time>2021-03-23T23:24:29Z</time>
<speed>7.8</speed>
</trkpt>
<trkpt lat="31.90101706" lon="-109.23089135">
<ele>1807.1</ele>
<time>2021-03-23T23:24:30Z</time>
<speed>7.3</speed>
</trkpt>
<trkpt lat="31.90104186" lon="-109.23096272">
<ele>1807.2</ele>
<time>2021-03-23T23:24:31Z</time>
<speed>7.2</speed>
</trkpt>
<trkpt lat="31.9010699" lon="-109.23103228">
<ele>1807.5</ele>
<time>2021-03-23T23:24:32Z</time>
<speed>7.3</speed>
</trkpt>
<trkpt lat="31.90109765" lon="-109.23109992">
<ele>1808.3</ele>
<time>2021-03-23T23:24:33Z</time>
<speed>7.2</speed>
</trkpt>
<trkpt lat="31.90112514" lon="-109.23116834">
<ele>1808.4</ele>
<time>2021-03-23T23:24:34Z</time>
<speed>7.3</speed>
</trkpt>
<trkpt lat="31.90115683" lon="-109.23123776">
<ele>1808.9</ele>
<time>2021-03-23T23:24:35Z</time>
<speed>7.2</speed>
</trkpt>
<trkpt lat="31.90119173" lon="-109.23130604">
<ele>1809.5</ele>
<time>2021-03-23T23:24:36Z</time>
<speed>7.3</speed>
</trkpt>
<trkpt lat="31.90121929" lon="-109.23137913">
<ele>1810</ele>
<time>2021-03-23T23:24:37Z</time>
<speed>7.4</speed>
</trkpt>
<trkpt lat="31.90125044" lon="-109.23144678">
<ele>1810.4</ele>
<time>2021-03-23T23:24:38Z</time>
<speed>7.4</speed>
</trkpt>
<trkpt lat="31.90127842" lon="-109.23151953">
<ele>1810.7</ele>
<time>2021-03-23T23:24:39Z</time>
<speed>7.6</speed>
</trkpt>
<trkpt lat="31.90130309" lon="-109.23159312">
<ele>1811.1</ele>
<time>2021-03-23T23:24:40Z</time>
<speed>7.7</speed>
</trkpt>
<trkpt lat="31.90132298" lon="-109.23166997">
<ele>1811.7</ele>
<time>2021-03-23T23:24:41Z</time>
<speed>7.8</speed>
</trkpt>
<trkpt lat="31.90134546" lon="-109.23174749">
<ele>1812</ele>
<time>2021-03-23T23:24:42Z</time>
<speed>8</speed>
</trkpt>
<trkpt lat="31.90136287" lon="-109.23183137">
<ele>1812.5</ele>
<time>2021-03-23T23:24:43Z</time>
<speed>8.2</speed>
</trkpt>
<trkpt lat="31.90138239" lon="-109.23191377">
<ele>1812.9</ele>
<time>2021-03-23T23:24:44Z</time>
<speed>8.1</speed>
</trkpt>
<trkpt lat="31.9013999" lon="-109.23199866">
<ele>1813.5</ele>
<time>2021-03-23T23:24:45Z</time>
<speed>8.1</speed>
</trkpt>
<trkpt lat="31.90141489" lon="-109.23208546">
<ele>1813.8</ele>
<time>2021-03-23T23:24:46Z</time>
<speed>8.2</speed>
</trkpt>
<trkpt lat="31.90143237" lon="-109.23216973">
<ele>1814.6</ele>
<time>2021-03-23T23:24:47Z</time>
<speed>8.1</speed>
</trkpt>
<trkpt lat="31.90144725" lon="-109.2322547">
<ele>1815</ele>
<time>2021-03-23T23:24:48Z</time>
<speed>8</speed>
</trkpt>
<trkpt lat="31.90145862" lon="-109.23234348">
<ele>1815.4</ele>
<time>2021-03-23T23:24:49Z</time>
<speed>8.1</speed>
</trkpt>
<trkpt lat="31.90146944" lon="-109.23242903">
<ele>1815.5</ele>
<time>2021-03-23T23:24:50Z</time>
<speed>8.2</speed>
</trkpt>
<trkpt lat="31.90148301" lon="-109.23251397">
<ele>1816.1</ele>
<time>2021-03-23T23:24:51Z</time>
<speed>8.1</speed>
</trkpt>
<trkpt lat="31.90149664" lon="-109.23259441">
<ele>1816.7</ele>
<time>2021-03-23T23:24:52Z</time>
<speed>8</speed>
</trkpt>
<trkpt lat="31.90151021" lon="-109.23267741">
<ele>1817.5</ele>
<time>2021-03-23T23:24:53Z</time>
<speed>8.1</speed>
</trkpt>
<trkpt lat="31.90151699" lon="-109.23275625">
<ele>1817.6</ele>
<time>2021-03-23T23:24:54Z</time>
<speed>7.9</speed>
</trkpt>
<trkpt lat="31.90152394" lon="-109.23284302">
<ele>1818.2</ele>
<time>2021-03-23T23:24:55Z</time>
<speed>8.1</speed>
</trkpt>
<trkpt lat="31.90152333" lon="-109.23293088">
<ele>1818.5</ele>
<time>2021-03-23T23:24:56Z</time>
<speed>8.2</speed>
</trkpt>
<trkpt lat="31.90152454" lon="-109.23301852">
<ele>1819.6</ele>
<time>2021-03-23T23:24:57Z</time>
<speed>8.4</speed>
</trkpt>
<trkpt lat="31.90152457" lon="-109.23310397">
<ele>1820.1</ele>
<time>2021-03-23T23:24:58Z</time>
<speed>8</speed>
</trkpt>
<trkpt lat="31.90152577" lon="-109.23318753">
<ele>1821.2</ele>
<time>2021-03-23T23:24:59Z</time>
<speed>8.2</speed>
</trkpt>
<trkpt lat="31.90151996" lon="-109.23326265">
<ele>1821.2</ele>
<time>2021-03-23T23:25:00Z</time>
<speed>7.8</speed>
</trkpt>
<trkpt lat="31.90151791" lon="-109.23334444">
<ele>1821.7</ele>
<time>2021-03-23T23:25:01Z</time>
<speed>7.6</speed>
</trkpt>
<trkpt lat="31.90151088" lon="-109.23342687">
<ele>1821.6</ele>
<time>2021-03-23T23:25:02Z</time>
<speed>7.7</speed>
</trkpt>
<trkpt lat="31.9015203" lon="-109.23350862">
<ele>1822.7</ele>
<time>2021-03-23T23:25:03Z</time>
<speed>7.9</speed>
</trkpt>
<trkpt lat="31.90152028" lon="-109.23359054">
<ele>1823.2</ele>
<time>2021-03-23T23:25:04Z</time>
<speed>8.1</speed>
</trkpt>
<trkpt lat="31.90152505" lon="-109.23367595">
<ele>1823.4</ele>
<time>2021-03-23T23:25:05Z</time>
<speed>8.1</speed>
</trkpt>
<trkpt lat="31.90153691" lon="-109.23376151">
<ele>1823.9</ele>
<time>2021-03-23T23:25:06Z</time>
<speed>8.1</speed>
</trkpt>
<trkpt lat="31.90154311" lon="-109.2338501">
<ele>1824.9</ele>
<time>2021-03-23T23:25:07Z</time>
<speed>7.9</speed>
</trkpt>
<trkpt lat="31.90154966" lon="-109.23392929">
<ele>1825.5</ele>
<time>2021-03-23T23:25:08Z</time>
<speed>7.3</speed>
</trkpt>
<trkpt lat="31.90155102" lon="-109.23400686">
<ele>1826.1</ele>
<time>2021-03-23T23:25:09Z</time>
<speed>7.2</speed>
</trkpt>
<trkpt lat="31.90155675" lon="-109.23408561">
<ele>1826.6</ele>
<time>2021-03-23T23:25:10Z</time>
<speed>7.1</speed>
</trkpt>
<trkpt lat="31.90155605" lon="-109.23415848">
<ele>1827.3</ele>
<time>2021-03-23T23:25:11Z</time>
<speed>6.9</speed>
</trkpt>
<trkpt lat="31.90155524" lon="-109.23423532">
<ele>1828</ele>
<time>2021-03-23T23:25:12Z</time>
<speed>7</speed>
</trkpt>
<trkpt lat="31.90155173" lon="-109.23431818">
<ele>1828.4</ele>
<time>2021-03-23T23:25:13Z</time>
<speed>7.2</speed>
</trkpt>
<trkpt lat="31.90154766" lon="-109.23439428">
<ele>1828.8</ele>
<time>2021-03-23T23:25:14Z</time>
<speed>7.3</speed>
</trkpt>
<trkpt lat="31.90154139" lon="-109.23447172">
<ele>1829</ele>
<time>2021-03-23T23:25:15Z</time>
<speed>7.3</speed>
</trkpt>
<trkpt lat="31.90154382" lon="-109.23454571">
<ele>1829.5</ele>
<time>2021-03-23T23:25:16Z</time>
<speed>7.1</speed>
</trkpt>
<trkpt lat="31.90155323" lon="-109.23461375">
<ele>1830.1</ele>
<time>2021-03-23T23:25:17Z</time>
<speed>6.6</speed>
</trkpt>
<trkpt lat="31.9015719" lon="-109.23467293">
<ele>1830</ele>
<time>2021-03-23T23:25:18Z</time>
<speed>6.2</speed>
</trkpt>
<trkpt lat="31.90159801" lon="-109.23472927">
<ele>1829.5</ele>
<time>2021-03-23T23:25:19Z</time>
<speed>6.3</speed>
</trkpt>
<trkpt lat="31.90163831" lon="-109.23477904">
<ele>1830</ele>
<time>2021-03-23T23:25:20Z</time>
<speed>6.2</speed>
</trkpt>
<trkpt lat="31.9016824" lon="-109.23482733">
<ele>1830.7</ele>
<time>2021-03-23T23:25:21Z</time>
<speed>6.4</speed>
</trkpt>
<trkpt lat="31.90172683" lon="-109.23487341">
<ele>1831.4</ele>
<time>2021-03-23T23:25:22Z</time>
<speed>6.7</speed>
</trkpt>
<trkpt lat="31.90177083" lon="-109.23493237">
<ele>1831.9</ele>
<time>2021-03-23T23:25:23Z</time>
<speed>6.9</speed>
</trkpt>
<trkpt lat="31.90180963" lon="-109.23499117">
<ele>1832.6</ele>
<time>2021-03-23T23:25:24Z</time>
<speed>7.2</speed>
</trkpt>
<trkpt lat="31.90184347" lon="-109.23505349">
<ele>1833.1</ele>
<time>2021-03-23T23:25:25Z</time>
<speed>7.2</speed>
</trkpt>
<trkpt lat="31.90187262" lon="-109.23512383">
<ele>1833.4</ele>
<time>2021-03-23T23:25:26Z</time>
<speed>7.1</speed>
</trkpt>
<trkpt lat="31.90189128" lon="-109.23519871">
<ele>1833.5</ele>
<time>2021-03-23T23:25:27Z</time>
<speed>7.3</speed>
</trkpt>
<trkpt lat="31.90190092" lon="-109.23526948">
<ele>1834.3</ele>
<time>2021-03-23T23:25:28Z</time>
<speed>7.3</speed>
</trkpt>
<trkpt lat="31.90190573" lon="-109.23534679">
<ele>1834.1</ele>
<time>2021-03-23T23:25:29Z</time>
<speed>7.1</speed>
</trkpt>
<trkpt lat="31.90190353" lon="-109.2354244">
<ele>1834.6</ele>
<time>2021-03-23T23:25:30Z</time>
<speed>7.2</speed>
</trkpt>
<trkpt lat="31.90189671" lon="-109.23549625">
<ele>1835.3</ele>
<time>2021-03-23T23:25:31Z</time>
<speed>7.1</speed>
</trkpt>
<trkpt lat="31.90188354" lon="-109.23556817">
<ele>1835.7</ele>
<time>2021-03-23T23:25:32Z</time>
<speed>6.9</speed>
</trkpt>
<trkpt lat="31.90187005" lon="-109.2356375">
<ele>1835.7</ele>
<time>2021-03-23T23:25:33Z</time>
<speed>6.8</speed>
</trkpt>
<trkpt lat="31.90185537" lon="-109.23570615">
<ele>1836.6</ele>
<time>2021-03-23T23:25:34Z</time>
<speed>6.8</speed>
</trkpt>
<trkpt lat="31.90184348" lon="-109.23577878">
<ele>1837.2</ele>
<time>2021-03-23T23:25:35Z</time>
<speed>6.7</speed>
</trkpt>
<trkpt lat="31.9018364" lon="-109.23584728">
<ele>1838.2</ele>
<time>2021-03-23T23:25:36Z</time>
<speed>6.7</speed>
</trkpt>
<trkpt lat="31.90183663" lon="-109.23591618">
<ele>1838.8</ele>
<time>2021-03-23T23:25:37Z</time>
<speed>6.5</speed>
</trkpt>
<trkpt lat="31.90183743" lon="-109.23598416">
<ele>1839.3</ele>
<time>2021-03-23T23:25:38Z</time>
<speed>6.4</speed>
</trkpt>
<trkpt lat="31.90184931" lon="-109.2360556">
<ele>1840.2</ele>
<time>2021-03-23T23:25:39Z</time>
<speed>6.6</speed>
</trkpt>
<trkpt lat="31.90185365" lon="-109.23612348">
<ele>1840.9</ele>
<time>2021-03-23T23:25:40Z</time>
<speed>6.3</speed>
</trkpt>
<trkpt lat="31.90186476" lon="-109.23619685">
<ele>1841.9</ele>
<time>2021-03-23T23:25:41Z</time>
<speed>6.7</speed>
</trkpt>
<trkpt lat="31.90187756" lon="-109.23627355">
<ele>1842.2</ele>
<time>2021-03-23T23:25:42Z</time>
<speed>7</speed>
</trkpt>
<trkpt lat="31.90189206" lon="-109.23634751">
<ele>1842.8</ele>
<time>2021-03-23T23:25:43Z</time>
<speed>7.4</speed>
</trkpt>
<trkpt lat="31.90190513" lon="-109.23642057">
<ele>1843.6</ele>
<time>2021-03-23T23:25:44Z</time>
<speed>7.4</speed>
</trkpt>
<trkpt lat="31.90192438" lon="-109.23649528">
<ele>1844</ele>
<time>2021-03-23T23:25:45Z</time>
<speed>7.5</speed>
</trkpt>
<trkpt lat="31.90194922" lon="-109.23656829">
<ele>1844.6</ele>
<time>2021-03-23T23:25:46Z</time>
<speed>7.4</speed>
</trkpt>
<trkpt lat="31.9019786" lon="-109.236637">
<ele>1844.7</ele>
<time>2021-03-23T23:25:47Z</time>
<speed>7.4</speed>
</trkpt>
<trkpt lat="31.90200763" lon="-109.23670681">
<ele>1844</ele>
<time>2021-03-23T23:25:48Z</time>
<speed>7.3</speed>
</trkpt>
<trkpt lat="31.902032" lon="-109.23678096">
<ele>1844.7</ele>
<time>2021-03-23T23:25:49Z</time>
<speed>7.4</speed>
</trkpt>
<trkpt lat="31.90204804" lon="-109.23685287">
<ele>1845.3</ele>
<time>2021-03-23T23:25:50Z</time>
<speed>7.2</speed>
</trkpt>
<trkpt lat="31.90205754" lon="-109.23692396">
<ele>1846.3</ele>
<time>2021-03-23T23:25:51Z</time>
<speed>7.2</speed>
</trkpt>
<trkpt lat="31.9020519" lon="-109.23699982">
<ele>1846.8</ele>
<time>2021-03-23T23:25:52Z</time>
<speed>7.1</speed>
</trkpt>
<trkpt lat="31.90202875" lon="-109.23706243">
<ele>1847.7</ele>
<time>2021-03-23T23:25:53Z</time>
<speed>6.8</speed>
</trkpt>
<trkpt lat="31.90199629" lon="-109.23711327">
<ele>1848.4</ele>
<time>2021-03-23T23:25:54Z</time>
<speed>6.5</speed>
</trkpt>
<trkpt lat="31.90195081" lon="-109.23715532">
<ele>1848.6</ele>
<time>2021-03-23T23:25:55Z</time>
<speed>6.2</speed>
</trkpt>
<trkpt lat="31.90190169" lon="-109.2371877">
<ele>1849.1</ele>
<time>2021-03-23T23:25:56Z</time>
<speed>6</speed>
</trkpt>
<trkpt lat="31.90185129" lon="-109.23721721">
<ele>1849.3</ele>
<time>2021-03-23T23:25:57Z</time>
<speed>6.1</speed>
</trkpt>
<trkpt lat="31.9017959" lon="-109.23724258">
<ele>1850.1</ele>
<time>2021-03-23T23:25:58Z</time>
<speed>6.2</speed>
</trkpt>
<trkpt lat="31.90174218" lon="-109.2372661">
<ele>1850.2</ele>
<time>2021-03-23T23:25:59Z</time>
<speed>6.2</speed>
</trkpt>
<trkpt lat="31.90168608" lon="-109.23729298">
<ele>1850.9</ele>
<time>2021-03-23T23:26:00Z</time>
<speed>6.9</speed>
</trkpt>
<trkpt lat="31.90162522" lon="-109.23731936">
<ele>1851.3</ele>
<time>2021-03-23T23:26:01Z</time>
<speed>7.4</speed>
</trkpt>
<trkpt lat="31.90156364" lon="-109.23734735">
<ele>1852.1</ele>
<time>2021-03-23T23:26:02Z</time>
<speed>7.3</speed>
</trkpt>
<trkpt lat="31.90149958" lon="-109.23737386">
<ele>1852.7</ele>
<time>2021-03-23T23:26:03Z</time>
<speed>7.5</speed>
</trkpt>
<trkpt lat="31.90143149" lon="-109.23739999">
<ele>1853.2</ele>
<time>2021-03-23T23:26:04Z</time>
<speed>7.6</speed>
</trkpt>
<trkpt lat="31.90136611" lon="-109.23742587">
<ele>1853.5</ele>
<time>2021-03-23T23:26:05Z</time>
<speed>7.5</speed>
</trkpt>
<trkpt lat="31.90130087" lon="-109.23745115">
<ele>1854.1</ele>
<time>2021-03-23T23:26:06Z</time>
<speed>7.5</speed>
</trkpt>
<trkpt lat="31.90123421" lon="-109.23747575">
<ele>1854.4</ele>
<time>2021-03-23T23:26:07Z</time>
<speed>7.5</speed>
</trkpt>
<trkpt lat="31.90116823" lon="-109.23750081">
<ele>1854.8</ele>
<time>2021-03-23T23:26:08Z</time>
<speed>7.4</speed>
</trkpt>
<trkpt lat="31.90110727" lon="-109.23752057">
<ele>1855.5</ele>
<time>2021-03-23T23:26:09Z</time>
<speed>7.1</speed>
</trkpt>
<trkpt lat="31.9010422" lon="-109.23753658">
<ele>1855.4</ele>
<time>2021-03-23T23:26:10Z</time>
<speed>7.5</speed>
</trkpt>
<trkpt lat="31.90097629" lon="-109.23755511">
<ele>1855.6</ele>
<time>2021-03-23T23:26:11Z</time>
<speed>7.3</speed>
</trkpt>
<trkpt lat="31.90091239" lon="-109.2375777">
<ele>1856.2</ele>
<time>2021-03-23T23:26:12Z</time>
<speed>7.2</speed>
</trkpt>
<trkpt lat="31.9008499" lon="-109.2376007">
<ele>1856.9</ele>
<time>2021-03-23T23:26:13Z</time>
<speed>7.3</speed>
</trkpt>
<trkpt lat="31.90078797" lon="-109.23762039">
<ele>1857.4</ele>
<time>2021-03-23T23:26:14Z</time>
<speed>7.3</speed>
</trkpt>
<trkpt lat="31.90071738" lon="-109.2376379">
<ele>1857.2</ele>
<time>2021-03-23T23:26:15Z</time>
<speed>7.1</speed>
</trkpt>
<trkpt lat="31.90066057" lon="-109.23765943">
<ele>1857.9</ele>
<time>2021-03-23T23:26:16Z</time>
<speed>7</speed>
</trkpt>
<trkpt lat="31.90060142" lon="-109.2376808">
<ele>1858.8</ele>
<time>2021-03-23T23:26:17Z</time>
<speed>7.2</speed>
</trkpt>
<trkpt lat="31.90054223" lon="-109.23769932">
<ele>1858.9</ele>
<time>2021-03-23T23:26:18Z</time>
<speed>7.3</speed>
</trkpt>
<trkpt lat="31.90048185" lon="-109.23772332">
<ele>1859.9</ele>
<time>2021-03-23T23:26:19Z</time>
<speed>7.4</speed>
</trkpt>
<trkpt lat="31.90041468" lon="-109.23774708">
<ele>1860.3</ele>
<time>2021-03-23T23:26:20Z</time>
<speed>7.5</speed>
</trkpt>
<trkpt lat="31.90034617" lon="-109.23776706">
<ele>1860.3</ele>
<time>2021-03-23T23:26:21Z</time>
<speed>7.5</speed>
</trkpt>
<trkpt lat="31.90027931" lon="-109.237789">
<ele>1861.2</ele>
<time>2021-03-23T23:26:22Z</time>
<speed>7.7</speed>
</trkpt>
<trkpt lat="31.90021258" lon="-109.23781255">
<ele>1861.6</ele>
<time>2021-03-23T23:26:23Z</time>
<speed>7.6</speed>
</trkpt>
<trkpt lat="31.90014968" lon="-109.23784082">
<ele>1862.1</ele>
<time>2021-03-23T23:26:24Z</time>
<speed>7.3</speed>
</trkpt>
<trkpt lat="31.90009039" lon="-109.23787382">
<ele>1862.4</ele>
<time>2021-03-23T23:26:25Z</time>
<speed>7.3</speed>
</trkpt>
<trkpt lat="31.90003576" lon="-109.23791398">
<ele>1862.6</ele>
<time>2021-03-23T23:26:26Z</time>
<speed>7.2</speed>
</trkpt>
<trkpt lat="31.89999223" lon="-109.23794743">
<ele>1862.7</ele>
<time>2021-03-23T23:26:27Z</time>
<speed>6.8</speed>
</trkpt>
<trkpt lat="31.89994889" lon="-109.23799354">
<ele>1863.3</ele>
<time>2021-03-23T23:26:28Z</time>
<speed>6.3</speed>
</trkpt>
<trkpt lat="31.89991109" lon="-109.23803873">
<ele>1863.5</ele>
<time>2021-03-23T23:26:29Z</time>
<speed>5.7</speed>
</trkpt>
<trkpt lat="31.89988202" lon="-109.23808458">
<ele>1864.2</ele>
<time>2021-03-23T23:26:30Z</time>
<speed>5.5</speed>
</trkpt>
<trkpt lat="31.89985809" lon="-109.23813607">
<ele>1864.8</ele>
<time>2021-03-23T23:26:31Z</time>
<speed>5.4</speed>
</trkpt>
<trkpt lat="31.89984017" lon="-109.23818976">
<ele>1865</ele>
<time>2021-03-23T23:26:32Z</time>
<speed>5.5</speed>
</trkpt>
<trkpt lat="31.89982937" lon="-109.23824573">
<ele>1865.5</ele>
<time>2021-03-23T23:26:33Z</time>
<speed>5.6</speed>
</trkpt>
<trkpt lat="31.89982669" lon="-109.23830531">
<ele>1866.3</ele>
<time>2021-03-23T23:26:34Z</time>
<speed>5.6</speed>
</trkpt>
<trkpt lat="31.89982303" lon="-109.23836398">
<ele>1866.9</ele>
<time>2021-03-23T23:26:35Z</time>
<speed>5.5</speed>
</trkpt>
<trkpt lat="31.89981972" lon="-109.23842022">
<ele>1867.4</ele>
<time>2021-03-23T23:26:36Z</time>
<speed>5.2</speed>
</trkpt>
<trkpt lat="31.8998171" lon="-109.23847433">
<ele>1867.3</ele>
<time>2021-03-23T23:26:37Z</time>
<speed>4.8</speed>
</trkpt>
<trkpt lat="31.89981897" lon="-109.23852969">
<ele>1868.1</ele>
<time>2021-03-23T23:26:38Z</time>
<speed>5</speed>
</trkpt>
<trkpt lat="31.89981502" lon="-109.23857595">
<ele>1868.6</ele>
<time>2021-03-23T23:26:39Z</time>
<speed>4.4</speed>
</trkpt>
<trkpt lat="31.89978876" lon="-109.23863661">
<ele>1869.8</ele>
<time>2021-03-23T23:26:41Z</time>
<speed>2.9</speed>
</trkpt>
<trkpt lat="31.89975164" lon="-109.23865885">
<ele>1870.5</ele>
<time>2021-03-23T23:26:43Z</time>
<speed>2.1</speed>
</trkpt>
<trkpt lat="31.89970348" lon="-109.23864201">
<ele>1870.7</ele>
<time>2021-03-23T23:26:46Z</time>
<speed>2.1</speed>
</trkpt>
<trkpt lat="31.89966851" lon="-109.23862312">
<ele>1870.5</ele>
<time>2021-03-23T23:26:48Z</time>
<speed>2.2</speed>
</trkpt>
<trkpt lat="31.89962579" lon="-109.23862">
<ele>1871.2</ele>
<time>2021-03-23T23:26:50Z</time>
<speed>2</speed>
</trkpt>
<trkpt lat="31.89958004" lon="-109.2386451">
<ele>1870.5</ele>
<time>2021-03-23T23:26:53Z</time>
<speed>1.5</speed>
</trkpt>
<trkpt lat="31.89954758" lon="-109.23866447">
<ele>1871.3</ele>
<time>2021-03-23T23:26:56Z</time>
<speed>1.2</speed>
</trkpt>
<trkpt lat="31.89951505" lon="-109.23864113">
<ele>1871.9</ele>
<time>2021-03-23T23:26:59Z</time>
<speed>0.8</speed>
</trkpt>
<trkpt lat="31.89949779" lon="-109.23863498">
<ele>1872.2</ele>
<time>2021-03-23T23:27:30Z</time>
<speed>0</speed>
</trkpt>
</trkseg>
</trk>
</gpx>
